<?xml version='1.0' encoding='UTF-8'?>
<gpx version="1.1" creator="https://www.komoot.de" xmlns="http://www.topografix.com/GPX/1/1" xmlns:xsi="http://www.w3.org/2001/XMLSchema-instance" xsi:schemaLocation="http://www.topografix.com/GPX/1/1 http://www.topografix.com/GPX/1/1/gpx.xsd">
  <metadata>
    <name>GPX Download: Jan-Reiners-Bahntrasse – Blick auf die Weser Runde von Bremen Hauptbahnhof</name>
    <author>
      <link href="https://www.komoot.de">
        <text>komoot</text>
        <type>text/html</type>
      </link>
    </author>
  </metadata>
  <wpt lat="53.116692" lon="8.879135">
    <name>Jan-Reiners-Bahntrasse</name>
    <sym>Flag, Blue</sym>
  </wpt>
  <wpt lat="53.120583" lon="8.882980">
    <name>Naturschutzgebiet Westliches Hollerland</name>
    <sym>Flag, Blue</sym>
  </wpt>
  <wpt lat="53.127783" lon="8.909204">
    <name>Borgfelder Wümmebrücke</name>
    <sym>Bridge</sym>
  </wpt>
  <wpt lat="53.125227" lon="8.915634">
    <name>Wümme in den Borgfelder Wümmewiesen</name>
    <sym>Flag, Blue</sym>
  </wpt>
  <wpt lat="53.126027" lon="8.943276">
    <name>Borgfelder Wümmewiesen</name>
    <sym>Flag, Blue</sym>
  </wpt>
  <wpt lat="53.066395" lon="9.129677">
    <name>Uersener Wald</name>
    <sym>Flag, Blue</sym>
  </wpt>
  <wpt lat="52.996767" lon="9.071228">
    <name>Blick auf die Weser</name>
    <sym>Flag, Blue</sym>
  </wpt>
  <wpt lat="52.996748" lon="9.070223">
    <name>Blick auf den Weserbogen vom Badener Berg</name>
    <sym>Flag, Blue</sym>
  </wpt>
  <wpt lat="52.996388" lon="9.051271">
    <name>Bootshaus und Marina Achim</name>
    <sym>Restaurant</sym>
  </wpt>
  <wpt lat="53.017392" lon="8.916434">
    <name>Weserdeichweg</name>
    <sym>Flag, Blue</sym>
  </wpt>
  <trk>
    <name>GPX Download: Jan-Reiners-Bahntrasse – Blick auf die Weser Runde von Bremen Hauptbahnhof</name>
    <trkseg>
      <trkpt lat="53.099426" lon="8.887200">
        <ele>5.397560</ele>
        <time>2026-03-20T11:32:20.108Z</time>
      </trkpt>
      <trkpt lat="53.099356" lon="8.887015">
        <ele>5.397560</ele>
        <time>2026-03-20T11:32:23.010Z</time>
      </trkpt>
      <trkpt lat="53.099467" lon="8.886673">
        <ele>5.397560</ele>
        <time>2026-03-20T11:32:28.440Z</time>
      </trkpt>
      <trkpt lat="53.099493" lon="8.886593">
        <ele>5.397560</ele>
        <time>2026-03-20T11:32:29.689Z</time>
      </trkpt>
      <trkpt lat="53.099683" lon="8.886010">
        <ele>5.397560</ele>
        <time>2026-03-20T11:32:39.179Z</time>
      </trkpt>
      <trkpt lat="53.099723" lon="8.885887">
        <ele>5.397911</ele>
        <time>2026-03-20T11:32:41.156Z</time>
      </trkpt>
      <trkpt lat="53.099820" lon="8.885586">
        <ele>5.429162</ele>
        <time>2026-03-20T11:32:46.135Z</time>
      </trkpt>
      <trkpt lat="53.099930" lon="8.885243">
        <ele>5.464736</ele>
        <time>2026-03-20T11:32:51.735Z</time>
      </trkpt>
      <trkpt lat="53.100135" lon="8.884581">
        <ele>5.532876</ele>
        <time>2026-03-20T11:33:02.031Z</time>
      </trkpt>
      <trkpt lat="53.100187" lon="8.884418">
        <ele>5.549762</ele>
        <time>2026-03-20T11:33:04.572Z</time>
      </trkpt>
      <trkpt lat="53.100233" lon="8.884272">
        <ele>5.564845</ele>
        <time>2026-03-20T11:33:06.892Z</time>
      </trkpt>
      <trkpt lat="53.100527" lon="8.883407">
        <ele>5.655775</ele>
        <time>2026-03-20T11:33:21.817Z</time>
      </trkpt>
      <trkpt lat="53.100607" lon="8.883193">
        <ele>5.652008</ele>
        <time>2026-03-20T11:33:25.664Z</time>
      </trkpt>
      <trkpt lat="53.100646" lon="8.883089">
        <ele>5.621607</ele>
        <time>2026-03-20T11:33:27.502Z</time>
      </trkpt>
      <trkpt lat="53.100684" lon="8.882987">
        <ele>5.591844</ele>
        <time>2026-03-20T11:33:29.279Z</time>
      </trkpt>
      <trkpt lat="53.100847" lon="8.882554">
        <ele>5.465133</ele>
        <time>2026-03-20T11:33:36.308Z</time>
      </trkpt>
      <trkpt lat="53.100893" lon="8.882430">
        <ele>5.428994</ele>
        <time>2026-03-20T11:33:38.166Z</time>
      </trkpt>
      <trkpt lat="53.100916" lon="8.882369">
        <ele>5.411135</ele>
        <time>2026-03-20T11:33:39.083Z</time>
      </trkpt>
      <trkpt lat="53.101067" lon="8.881965">
        <ele>5.293148</ele>
        <time>2026-03-20T11:33:44.788Z</time>
      </trkpt>
      <trkpt lat="53.101202" lon="8.881633">
        <ele>5.193733</ele>
        <time>2026-03-20T11:33:49.605Z</time>
      </trkpt>
      <trkpt lat="53.101257" lon="8.881490">
        <ele>5.151628</ele>
        <time>2026-03-20T11:33:51.772Z</time>
      </trkpt>
      <trkpt lat="53.101436" lon="8.881104">
        <ele>5.030705</ele>
        <time>2026-03-20T11:33:58.152Z</time>
      </trkpt>
      <trkpt lat="53.101611" lon="8.880805">
        <ele>4.927874</ele>
        <time>2026-03-20T11:34:03.620Z</time>
      </trkpt>
      <trkpt lat="53.101685" lon="8.880687">
        <ele>4.902956</ele>
        <time>2026-03-20T11:34:05.874Z</time>
      </trkpt>
      <trkpt lat="53.101806" lon="8.880883">
        <ele>4.861902</ele>
        <time>2026-03-20T11:34:09.564Z</time>
      </trkpt>
      <trkpt lat="53.102027" lon="8.881098">
        <ele>4.799650</ele>
        <time>2026-03-20T11:34:15.106Z</time>
      </trkpt>
      <trkpt lat="53.102180" lon="8.881216">
        <ele>4.758640</ele>
        <time>2026-03-20T11:34:18.713Z</time>
      </trkpt>
      <trkpt lat="53.102306" lon="8.881312">
        <ele>4.724938</ele>
        <time>2026-03-20T11:34:21.737Z</time>
      </trkpt>
      <trkpt lat="53.102620" lon="8.881607">
        <ele>4.637252</ele>
        <time>2026-03-20T11:34:30.105Z</time>
      </trkpt>
      <trkpt lat="53.102896" lon="8.881874">
        <ele>4.559618</ele>
        <time>2026-03-20T11:34:37.954Z</time>
      </trkpt>
      <trkpt lat="53.103151" lon="8.882118">
        <ele>4.481777</ele>
        <time>2026-03-20T11:34:44.565Z</time>
      </trkpt>
      <trkpt lat="53.103195" lon="8.882159">
        <ele>4.446033</ele>
        <time>2026-03-20T11:34:45.661Z</time>
      </trkpt>
      <trkpt lat="53.103406" lon="8.882367">
        <ele>4.272204</ele>
        <time>2026-03-20T11:34:50.903Z</time>
      </trkpt>
      <trkpt lat="53.103436" lon="8.882397">
        <ele>4.247396</ele>
        <time>2026-03-20T11:34:51.632Z</time>
      </trkpt>
      <trkpt lat="53.103582" lon="8.882541">
        <ele>4.127100</ele>
        <time>2026-03-20T11:34:55.138Z</time>
      </trkpt>
      <trkpt lat="53.103720" lon="8.882677">
        <ele>4.013419</ele>
        <time>2026-03-20T11:34:58.395Z</time>
      </trkpt>
      <trkpt lat="53.103864" lon="8.882819">
        <ele>3.894777</ele>
        <time>2026-03-20T11:35:01.756Z</time>
      </trkpt>
      <trkpt lat="53.104097" lon="8.883049">
        <ele>3.702756</ele>
        <time>2026-03-20T11:35:07.193Z</time>
      </trkpt>
      <trkpt lat="53.104314" lon="8.883263">
        <ele>3.523967</ele>
        <time>2026-03-20T11:35:12.309Z</time>
      </trkpt>
      <trkpt lat="53.104724" lon="8.883669">
        <ele>3.209616</ele>
        <time>2026-03-20T11:35:22.017Z</time>
      </trkpt>
      <trkpt lat="53.105235" lon="8.884173">
        <ele>3.118477</ele>
        <time>2026-03-20T11:35:35.354Z</time>
      </trkpt>
      <trkpt lat="53.105314" lon="8.884252">
        <ele>3.104336</ele>
        <time>2026-03-20T11:35:37.418Z</time>
      </trkpt>
      <trkpt lat="53.105403" lon="8.884342">
        <ele>3.088358</ele>
        <time>2026-03-20T11:35:39.766Z</time>
      </trkpt>
      <trkpt lat="53.105597" lon="8.884530">
        <ele>3.053913</ele>
        <time>2026-03-20T11:35:44.920Z</time>
      </trkpt>
      <trkpt lat="53.105636" lon="8.884567">
        <ele>3.047025</ele>
        <time>2026-03-20T11:35:45.955Z</time>
      </trkpt>
      <trkpt lat="53.105734" lon="8.884662">
        <ele>3.029624</ele>
        <time>2026-03-20T11:35:48.558Z</time>
      </trkpt>
      <trkpt lat="53.105802" lon="8.884728">
        <ele>3.017545</ele>
        <time>2026-03-20T11:35:50.379Z</time>
      </trkpt>
      <trkpt lat="53.105885" lon="8.884809">
        <ele>3.002783</ele>
        <time>2026-03-20T11:35:52.602Z</time>
      </trkpt>
      <trkpt lat="53.106082" lon="8.884999">
        <ele>2.967847</ele>
        <time>2026-03-20T11:35:57.845Z</time>
      </trkpt>
      <trkpt lat="53.106140" lon="8.885055">
        <ele>2.957559</ele>
        <time>2026-03-20T11:35:59.415Z</time>
      </trkpt>
      <trkpt lat="53.106642" lon="8.885541">
        <ele>2.990753</ele>
        <time>2026-03-20T11:36:13.405Z</time>
      </trkpt>
      <trkpt lat="53.106782" lon="8.885676">
        <ele>3.008267</ele>
        <time>2026-03-20T11:36:17.267Z</time>
      </trkpt>
      <trkpt lat="53.106933" lon="8.885822">
        <ele>3.027170</ele>
        <time>2026-03-20T11:36:21.365Z</time>
      </trkpt>
      <trkpt lat="53.107056" lon="8.885940">
        <ele>3.042538</ele>
        <time>2026-03-20T11:36:24.657Z</time>
      </trkpt>
      <trkpt lat="53.107228" lon="8.886107">
        <ele>3.064092</ele>
        <time>2026-03-20T11:36:29.267Z</time>
      </trkpt>
      <trkpt lat="53.107338" lon="8.886213">
        <ele>3.077851</ele>
        <time>2026-03-20T11:36:32.205Z</time>
      </trkpt>
      <trkpt lat="53.107443" lon="8.886315">
        <ele>3.091011</ele>
        <time>2026-03-20T11:36:35.073Z</time>
      </trkpt>
      <trkpt lat="53.107588" lon="8.886458">
        <ele>3.109255</ele>
        <time>2026-03-20T11:36:39.009Z</time>
      </trkpt>
      <trkpt lat="53.107738" lon="8.886606">
        <ele>3.128131</ele>
        <time>2026-03-20T11:36:43.137Z</time>
      </trkpt>
      <trkpt lat="53.107788" lon="8.886656">
        <ele>3.134445</ele>
        <time>2026-03-20T11:36:44.539Z</time>
      </trkpt>
      <trkpt lat="53.107849" lon="8.886716">
        <ele>3.135029</ele>
        <time>2026-03-20T11:36:46.268Z</time>
      </trkpt>
      <trkpt lat="53.107875" lon="8.886742">
        <ele>3.135088</ele>
        <time>2026-03-20T11:36:47.006Z</time>
      </trkpt>
      <trkpt lat="53.108038" lon="8.886904">
        <ele>3.135458</ele>
        <time>2026-03-20T11:36:51.708Z</time>
      </trkpt>
      <trkpt lat="53.108232" lon="8.887104">
        <ele>3.135903</ele>
        <time>2026-03-20T11:36:57.316Z</time>
      </trkpt>
      <trkpt lat="53.108365" lon="8.887227">
        <ele>3.136199</ele>
        <time>2026-03-20T11:37:00.811Z</time>
      </trkpt>
      <trkpt lat="53.108572" lon="8.887467">
        <ele>3.136691</ele>
        <time>2026-03-20T11:37:06.831Z</time>
      </trkpt>
      <trkpt lat="53.108677" lon="8.887571">
        <ele>3.136929</ele>
        <time>2026-03-20T11:37:09.714Z</time>
      </trkpt>
      <trkpt lat="53.108930" lon="8.887823">
        <ele>3.137503</ele>
        <time>2026-03-20T11:37:16.496Z</time>
      </trkpt>
      <trkpt lat="53.109045" lon="8.887925">
        <ele>3.137757</ele>
        <time>2026-03-20T11:37:19.517Z</time>
      </trkpt>
      <trkpt lat="53.109154" lon="8.888018">
        <ele>3.137995</ele>
        <time>2026-03-20T11:37:22.319Z</time>
      </trkpt>
      <trkpt lat="53.109207" lon="8.887817">
        <ele>3.138252</ele>
        <time>2026-03-20T11:37:25.122Z</time>
      </trkpt>
      <trkpt lat="53.109110" lon="8.887717">
        <ele>3.127155</ele>
        <time>2026-03-20T11:37:27.638Z</time>
      </trkpt>
      <trkpt lat="53.109011" lon="8.887617">
        <ele>3.091121</ele>
        <time>2026-03-20T11:37:30.144Z</time>
      </trkpt>
      <trkpt lat="53.109105" lon="8.887430">
        <ele>3.045552</ele>
        <time>2026-03-20T11:37:33.121Z</time>
      </trkpt>
      <trkpt lat="53.109369" lon="8.886631">
        <ele>2.875155</ele>
        <time>2026-03-20T11:37:44.114Z</time>
      </trkpt>
      <trkpt lat="53.109588" lon="8.885971">
        <ele>2.734263</ele>
        <time>2026-03-20T11:37:53.744Z</time>
      </trkpt>
      <trkpt lat="53.109594" lon="8.885955">
        <ele>2.730738</ele>
        <time>2026-03-20T11:37:53.978Z</time>
      </trkpt>
      <trkpt lat="53.109620" lon="8.885874">
        <ele>2.713578</ele>
        <time>2026-03-20T11:37:55.118Z</time>
      </trkpt>
      <trkpt lat="53.109792" lon="8.885371">
        <ele>2.605425</ele>
        <time>2026-03-20T11:38:02.603Z</time>
      </trkpt>
      <trkpt lat="53.109807" lon="8.885326">
        <ele>2.595808</ele>
        <time>2026-03-20T11:38:03.291Z</time>
      </trkpt>
      <trkpt lat="53.109898" lon="8.885051">
        <ele>2.605721</ele>
        <time>2026-03-20T11:38:07.380Z</time>
      </trkpt>
      <trkpt lat="53.110368" lon="8.883617">
        <ele>2.805332</ele>
        <time>2026-03-20T11:38:29.982Z</time>
      </trkpt>
      <trkpt lat="53.110467" lon="8.883548">
        <ele>2.827174</ele>
        <time>2026-03-20T11:38:32.551Z</time>
      </trkpt>
      <trkpt lat="53.110520" lon="8.883434">
        <ele>2.844790</ele>
        <time>2026-03-20T11:38:34.568Z</time>
      </trkpt>
      <trkpt lat="53.110557" lon="8.883311">
        <ele>2.861599</ele>
        <time>2026-03-20T11:38:36.541Z</time>
      </trkpt>
      <trkpt lat="53.110586" lon="8.883141">
        <ele>2.883191</ele>
        <time>2026-03-20T11:38:39.003Z</time>
      </trkpt>
      <trkpt lat="53.110576" lon="8.882935">
        <ele>2.908440</ele>
        <time>2026-03-20T11:38:41.939Z</time>
      </trkpt>
      <trkpt lat="53.110625" lon="8.882853">
        <ele>2.922576</ele>
        <time>2026-03-20T11:38:43.603Z</time>
      </trkpt>
      <trkpt lat="53.111044" lon="8.881689">
        <ele>3.022448</ele>
        <time>2026-03-20T11:39:02.905Z</time>
      </trkpt>
      <trkpt lat="53.111335" lon="8.880994">
        <ele>3.078469</ele>
        <time>2026-03-20T11:39:14.918Z</time>
      </trkpt>
      <trkpt lat="53.111685" lon="8.880381">
        <ele>3.134399</ele>
        <time>2026-03-20T11:39:25.910Z</time>
      </trkpt>
      <trkpt lat="53.112011" lon="8.879958">
        <ele>2.930623</ele>
        <time>2026-03-20T11:39:34.250Z</time>
      </trkpt>
      <trkpt lat="53.112200" lon="8.879737">
        <ele>2.785328</ele>
        <time>2026-03-20T11:39:38.887Z</time>
      </trkpt>
      <trkpt lat="53.112309" lon="8.879665">
        <ele>2.711546</ele>
        <time>2026-03-20T11:39:41.248Z</time>
      </trkpt>
      <trkpt lat="53.112400" lon="8.879669">
        <ele>2.654266</ele>
        <time>2026-03-20T11:39:43.086Z</time>
      </trkpt>
      <trkpt lat="53.112485" lon="8.879636">
        <ele>2.599348</ele>
        <time>2026-03-20T11:39:44.814Z</time>
      </trkpt>
      <trkpt lat="53.112564" lon="8.879585">
        <ele>2.546037</ele>
        <time>2026-03-20T11:39:46.520Z</time>
      </trkpt>
      <trkpt lat="53.112658" lon="8.879502">
        <ele>2.479094</ele>
        <time>2026-03-20T11:39:48.635Z</time>
      </trkpt>
      <trkpt lat="53.112708" lon="8.879389">
        <ele>2.426072</ele>
        <time>2026-03-20T11:39:50.311Z</time>
      </trkpt>
      <trkpt lat="53.112811" lon="8.879328">
        <ele>2.357287</ele>
        <time>2026-03-20T11:39:52.508Z</time>
      </trkpt>
      <trkpt lat="53.113740" lon="8.878923">
        <ele>1.760884</ele>
        <time>2026-03-20T11:40:11.624Z</time>
      </trkpt>
      <trkpt lat="53.114274" lon="8.878552">
        <ele>1.407889</ele>
        <time>2026-03-20T11:40:23.512Z</time>
      </trkpt>
      <trkpt lat="53.114676" lon="8.878115">
        <ele>1.115032</ele>
        <time>2026-03-20T11:40:33.181Z</time>
      </trkpt>
      <trkpt lat="53.114855" lon="8.877826">
        <ele>0.962956</ele>
        <time>2026-03-20T11:40:38.188Z</time>
      </trkpt>
      <trkpt lat="53.114907" lon="8.877740">
        <ele>0.918253</ele>
        <time>2026-03-20T11:40:39.672Z</time>
      </trkpt>
      <trkpt lat="53.115051" lon="8.877465">
        <ele>0.832972</ele>
        <time>2026-03-20T11:40:44.122Z</time>
      </trkpt>
      <trkpt lat="53.115200" lon="8.877600">
        <ele>0.768282</ele>
        <time>2026-03-20T11:40:47.587Z</time>
      </trkpt>
      <trkpt lat="53.115275" lon="8.877680">
        <ele>0.734316</ele>
        <time>2026-03-20T11:40:49.415Z</time>
      </trkpt>
      <trkpt lat="53.116696" lon="8.879124">
        <ele>0.349848</ele>
        <time>2026-03-20T11:41:24.531Z</time>
      </trkpt>
      <trkpt lat="53.117072" lon="8.879506">
        <ele>0.510107</ele>
        <time>2026-03-20T11:41:34.408Z</time>
      </trkpt>
      <trkpt lat="53.117147" lon="8.879581">
        <ele>0.541939</ele>
        <time>2026-03-20T11:41:36.426Z</time>
      </trkpt>
      <trkpt lat="53.120574" lon="8.883004">
        <ele>2.109359</ele>
        <time>2026-03-20T11:43:13.587Z</time>
      </trkpt>
      <trkpt lat="53.120975" lon="8.883405">
        <ele>2.321570</ele>
        <time>2026-03-20T11:43:24.888Z</time>
      </trkpt>
      <trkpt lat="53.121205" lon="8.883667">
        <ele>2.292742</ele>
        <time>2026-03-20T11:43:31.367Z</time>
      </trkpt>
      <trkpt lat="53.121559" lon="8.884027">
        <ele>2.173900</ele>
        <time>2026-03-20T11:43:40.652Z</time>
      </trkpt>
      <trkpt lat="53.121611" lon="8.884074">
        <ele>2.156948</ele>
        <time>2026-03-20T11:43:41.913Z</time>
      </trkpt>
      <trkpt lat="53.123453" lon="8.886041">
        <ele>1.350889</ele>
        <time>2026-03-20T11:44:26.279Z</time>
      </trkpt>
      <trkpt lat="53.123860" lon="8.886538">
        <ele>1.122038</ele>
        <time>2026-03-20T11:44:36.850Z</time>
      </trkpt>
      <trkpt lat="53.124060" lon="8.886918">
        <ele>1.020716</ele>
        <time>2026-03-20T11:44:43.372Z</time>
      </trkpt>
      <trkpt lat="53.124413" lon="8.887577">
        <ele>1.014745</ele>
        <time>2026-03-20T11:44:55.120Z</time>
      </trkpt>
      <trkpt lat="53.124617" lon="8.887809">
        <ele>1.011963</ele>
        <time>2026-03-20T11:45:00.630Z</time>
      </trkpt>
      <trkpt lat="53.126186" lon="8.889454">
        <ele>1.089977</ele>
        <time>2026-03-20T11:45:42.649Z</time>
      </trkpt>
      <trkpt lat="53.128162" lon="8.891532">
        <ele>1.270177</ele>
        <time>2026-03-20T11:46:35.072Z</time>
      </trkpt>
      <trkpt lat="53.129253" lon="8.892680">
        <ele>1.332559</ele>
        <time>2026-03-20T11:47:03.989Z</time>
      </trkpt>
      <trkpt lat="53.129135" lon="8.892870">
        <ele>1.339484</ele>
        <time>2026-03-20T11:47:07.670Z</time>
      </trkpt>
      <trkpt lat="53.129052" lon="8.893157">
        <ele>1.347553</ele>
        <time>2026-03-20T11:47:11.977Z</time>
      </trkpt>
      <trkpt lat="53.128906" lon="8.893648">
        <ele>1.361431</ele>
        <time>2026-03-20T11:47:19.408Z</time>
      </trkpt>
      <trkpt lat="53.128584" lon="8.895003">
        <ele>1.439931</ele>
        <time>2026-03-20T11:47:38.921Z</time>
      </trkpt>
      <trkpt lat="53.128544" lon="8.895162">
        <ele>1.450414</ele>
        <time>2026-03-20T11:47:41.281Z</time>
      </trkpt>
      <trkpt lat="53.128513" lon="8.895285">
        <ele>1.458526</ele>
        <time>2026-03-20T11:47:43.097Z</time>
      </trkpt>
      <trkpt lat="53.128464" lon="8.895488">
        <ele>1.471830</ele>
        <time>2026-03-20T11:47:46.058Z</time>
      </trkpt>
      <trkpt lat="53.128441" lon="8.895581">
        <ele>1.477946</ele>
        <time>2026-03-20T11:47:47.431Z</time>
      </trkpt>
      <trkpt lat="53.128397" lon="8.895742">
        <ele>1.488703</ele>
        <time>2026-03-20T11:47:49.849Z</time>
      </trkpt>
      <trkpt lat="53.128233" lon="8.896159">
        <ele>1.519019</ele>
        <time>2026-03-20T11:47:56.699Z</time>
      </trkpt>
      <trkpt lat="53.128137" lon="8.896368">
        <ele>1.535023</ele>
        <time>2026-03-20T11:48:00.365Z</time>
      </trkpt>
      <trkpt lat="53.128018" lon="8.896626">
        <ele>1.575501</ele>
        <time>2026-03-20T11:48:04.923Z</time>
      </trkpt>
      <trkpt lat="53.127902" lon="8.896881">
        <ele>1.698369</ele>
        <time>2026-03-20T11:48:09.133Z</time>
      </trkpt>
      <trkpt lat="53.127715" lon="8.897289">
        <ele>1.895500</ele>
        <time>2026-03-20T11:48:16.134Z</time>
      </trkpt>
      <trkpt lat="53.127518" lon="8.897736">
        <ele>2.108455</ele>
        <time>2026-03-20T11:48:24.322Z</time>
      </trkpt>
      <trkpt lat="53.127451" lon="8.898109">
        <ele>2.257954</ele>
        <time>2026-03-20T11:48:30.199Z</time>
      </trkpt>
      <trkpt lat="53.127439" lon="8.898579">
        <ele>2.438583</ele>
        <time>2026-03-20T11:48:37.463Z</time>
      </trkpt>
      <trkpt lat="53.127450" lon="8.898675">
        <ele>2.476110</ele>
        <time>2026-03-20T11:48:38.994Z</time>
      </trkpt>
      <trkpt lat="53.127465" lon="8.898949">
        <ele>2.581754</ele>
        <time>2026-03-20T11:48:43.369Z</time>
      </trkpt>
      <trkpt lat="53.127474" lon="8.899095">
        <ele>2.638109</ele>
        <time>2026-03-20T11:48:45.723Z</time>
      </trkpt>
      <trkpt lat="53.127478" lon="8.899282">
        <ele>2.715067</ele>
        <time>2026-03-20T11:48:48.705Z</time>
      </trkpt>
      <trkpt lat="53.127478" lon="8.899585">
        <ele>2.905054</ele>
        <time>2026-03-20T11:48:53.538Z</time>
      </trkpt>
      <trkpt lat="53.127437" lon="8.899812">
        <ele>3.053696</ele>
        <time>2026-03-20T11:48:57.348Z</time>
      </trkpt>
      <trkpt lat="53.127323" lon="8.900216">
        <ele>3.333625</ele>
        <time>2026-03-20T11:49:04.619Z</time>
      </trkpt>
      <trkpt lat="53.127237" lon="8.900693">
        <ele>3.645924</ele>
        <time>2026-03-20T11:49:12.893Z</time>
      </trkpt>
      <trkpt lat="53.126982" lon="8.901344">
        <ele>4.133394</ele>
        <time>2026-03-20T11:49:25.044Z</time>
      </trkpt>
      <trkpt lat="53.126894" lon="8.901573">
        <ele>4.303905</ele>
        <time>2026-03-20T11:49:29.361Z</time>
      </trkpt>
      <trkpt lat="53.126789" lon="8.901889">
        <ele>4.530397</ele>
        <time>2026-03-20T11:49:34.985Z</time>
      </trkpt>
      <trkpt lat="53.126803" lon="8.902392">
        <ele>4.731346</ele>
        <time>2026-03-20T11:49:42.678Z</time>
      </trkpt>
      <trkpt lat="53.126781" lon="8.902623">
        <ele>4.814410</ele>
        <time>2026-03-20T11:49:46.250Z</time>
      </trkpt>
      <trkpt lat="53.126666" lon="8.903191">
        <ele>5.027304</ele>
        <time>2026-03-20T11:49:55.238Z</time>
      </trkpt>
      <trkpt lat="53.126641" lon="8.903503">
        <ele>5.139092</ele>
        <time>2026-03-20T11:49:59.809Z</time>
      </trkpt>
      <trkpt lat="53.126616" lon="8.904116">
        <ele>5.357297</ele>
        <time>2026-03-20T11:50:08.731Z</time>
      </trkpt>
      <trkpt lat="53.126605" lon="8.904366">
        <ele>5.446321</ele>
        <time>2026-03-20T11:50:12.492Z</time>
      </trkpt>
      <trkpt lat="53.126594" lon="8.904604">
        <ele>5.531096</ele>
        <time>2026-03-20T11:50:15.912Z</time>
      </trkpt>
      <trkpt lat="53.126593" lon="8.905294">
        <ele>5.624743</ele>
        <time>2026-03-20T11:50:25.763Z</time>
      </trkpt>
      <trkpt lat="53.126585" lon="8.905882">
        <ele>5.590721</ele>
        <time>2026-03-20T11:50:33.791Z</time>
      </trkpt>
      <trkpt lat="53.126584" lon="8.906002">
        <ele>5.583779</ele>
        <time>2026-03-20T11:50:35.404Z</time>
      </trkpt>
      <trkpt lat="53.126582" lon="8.906168">
        <ele>5.574175</ele>
        <time>2026-03-20T11:50:37.594Z</time>
      </trkpt>
      <trkpt lat="53.126568" lon="8.906299">
        <ele>5.566478</ele>
        <time>2026-03-20T11:50:39.317Z</time>
      </trkpt>
      <trkpt lat="53.126538" lon="8.906432">
        <ele>5.558259</ele>
        <time>2026-03-20T11:50:41.143Z</time>
      </trkpt>
      <trkpt lat="53.126446" lon="8.906771">
        <ele>5.536737</ele>
        <time>2026-03-20T11:50:46.005Z</time>
      </trkpt>
      <trkpt lat="53.126402" lon="8.907346">
        <ele>5.503206</ele>
        <time>2026-03-20T11:50:53.611Z</time>
      </trkpt>
      <trkpt lat="53.126477" lon="8.907719">
        <ele>5.480450</ele>
        <time>2026-03-20T11:50:58.700Z</time>
      </trkpt>
      <trkpt lat="53.126585" lon="8.908035">
        <ele>5.305202</ele>
        <time>2026-03-20T11:51:03.087Z</time>
      </trkpt>
      <trkpt lat="53.126664" lon="8.908148">
        <ele>5.177413</ele>
        <time>2026-03-20T11:51:05.166Z</time>
      </trkpt>
      <trkpt lat="53.127168" lon="8.908560">
        <ele>4.488355</ele>
        <time>2026-03-20T11:51:15.697Z</time>
      </trkpt>
      <trkpt lat="53.127248" lon="8.908624">
        <ele>4.379430</ele>
        <time>2026-03-20T11:51:17.320Z</time>
      </trkpt>
      <trkpt lat="53.127737" lon="8.909072">
        <ele>3.694484</ele>
        <time>2026-03-20T11:51:27.475Z</time>
      </trkpt>
      <trkpt lat="53.127806" lon="8.909147">
        <ele>3.593367</ele>
        <time>2026-03-20T11:51:29.075Z</time>
      </trkpt>
      <trkpt lat="53.127983" lon="8.909338">
        <ele>3.334540</ele>
        <time>2026-03-20T11:51:33.068Z</time>
      </trkpt>
      <trkpt lat="53.128009" lon="8.909367">
        <ele>3.296138</ele>
        <time>2026-03-20T11:51:33.640Z</time>
      </trkpt>
      <trkpt lat="53.127698" lon="8.910070">
        <ele>3.073312</ele>
        <time>2026-03-20T11:51:50.828Z</time>
      </trkpt>
      <trkpt lat="53.127652" lon="8.910177">
        <ele>3.042977</ele>
        <time>2026-03-20T11:51:52.404Z</time>
      </trkpt>
      <trkpt lat="53.126420" lon="8.913023">
        <ele>2.662624</ele>
        <time>2026-03-20T11:53:11.590Z</time>
      </trkpt>
      <trkpt lat="53.125994" lon="8.914082">
        <ele>2.739294</ele>
        <time>2026-03-20T11:53:40.557Z</time>
      </trkpt>
      <trkpt lat="53.125226" lon="8.915633">
        <ele>2.587898</ele>
        <time>2026-03-20T11:54:06.847Z</time>
      </trkpt>
      <trkpt lat="53.125141" lon="8.915806">
        <ele>2.566799</ele>
        <time>2026-03-20T11:54:09.684Z</time>
      </trkpt>
      <trkpt lat="53.124404" lon="8.917166">
        <ele>2.341788</ele>
        <time>2026-03-20T11:54:32.868Z</time>
      </trkpt>
      <trkpt lat="53.124305" lon="8.917507">
        <ele>2.282017</ele>
        <time>2026-03-20T11:54:37.641Z</time>
      </trkpt>
      <trkpt lat="53.124320" lon="8.917703">
        <ele>2.250840</ele>
        <time>2026-03-20T11:54:40.142Z</time>
      </trkpt>
      <trkpt lat="53.126973" lon="8.922890">
        <ele>1.256579</ele>
        <time>2026-03-20T11:56:07.457Z</time>
      </trkpt>
      <trkpt lat="53.126988" lon="8.922921">
        <ele>1.251752</ele>
        <time>2026-03-20T11:56:07.972Z</time>
      </trkpt>
      <trkpt lat="53.127049" lon="8.923043">
        <ele>1.232503</ele>
        <time>2026-03-20T11:56:10.055Z</time>
      </trkpt>
      <trkpt lat="53.127543" lon="8.924025">
        <ele>1.134760</ele>
        <time>2026-03-20T11:56:26.967Z</time>
      </trkpt>
      <trkpt lat="53.127911" lon="8.928158">
        <ele>1.030929</ele>
        <time>2026-03-20T11:57:21.967Z</time>
      </trkpt>
      <trkpt lat="53.126392" lon="8.938221">
        <ele>1.147656</ele>
        <time>2026-03-20T11:59:41.544Z</time>
      </trkpt>
      <trkpt lat="53.124788" lon="8.939940">
        <ele>0.954326</ele>
        <time>2026-03-20T12:00:22.794Z</time>
      </trkpt>
      <trkpt lat="53.124676" lon="8.940100">
        <ele>0.951372</ele>
        <time>2026-03-20T12:00:26.020Z</time>
      </trkpt>
      <trkpt lat="53.124184" lon="8.941722">
        <ele>0.929527</ele>
        <time>2026-03-20T12:00:50.348Z</time>
      </trkpt>
      <trkpt lat="53.122682" lon="8.946667">
        <ele>1.026937</ele>
        <time>2026-03-20T12:02:05.195Z</time>
      </trkpt>
      <trkpt lat="53.121932" lon="8.949178">
        <ele>0.994437</ele>
        <time>2026-03-20T12:02:41.611Z</time>
      </trkpt>
      <trkpt lat="53.121811" lon="8.949668">
        <ele>0.985052</ele>
        <time>2026-03-20T12:02:48.737Z</time>
      </trkpt>
      <trkpt lat="53.121840" lon="8.949884">
        <ele>0.981131</ele>
        <time>2026-03-20T12:02:51.750Z</time>
      </trkpt>
      <trkpt lat="53.121935" lon="8.950150">
        <ele>0.975648</ele>
        <time>2026-03-20T12:02:55.987Z</time>
      </trkpt>
      <trkpt lat="53.122033" lon="8.950260">
        <ele>0.982335</ele>
        <time>2026-03-20T12:02:58.711Z</time>
      </trkpt>
      <trkpt lat="53.123577" lon="8.950832">
        <ele>1.145462</ele>
        <time>2026-03-20T12:03:34.916Z</time>
      </trkpt>
      <trkpt lat="53.125057" lon="8.951377">
        <ele>1.078846</ele>
        <time>2026-03-20T12:04:08.297Z</time>
      </trkpt>
      <trkpt lat="53.124945" lon="8.956210">
        <ele>0.933978</ele>
        <time>2026-03-20T12:05:11.617Z</time>
      </trkpt>
      <trkpt lat="53.124672" lon="8.964852">
        <ele>1.500568</ele>
        <time>2026-03-20T12:07:09.783Z</time>
      </trkpt>
      <trkpt lat="53.125435" lon="8.968294">
        <ele>1.976331</ele>
        <time>2026-03-20T12:07:59.869Z</time>
      </trkpt>
      <trkpt lat="53.127714" lon="8.978720">
        <ele>4.382788</ele>
        <time>2026-03-20T12:10:38.306Z</time>
      </trkpt>
      <trkpt lat="53.127783" lon="8.979005">
        <ele>4.465355</ele>
        <time>2026-03-20T12:10:43.067Z</time>
      </trkpt>
      <trkpt lat="53.127852" lon="8.979273">
        <ele>4.543705</ele>
        <time>2026-03-20T12:10:47.553Z</time>
      </trkpt>
      <trkpt lat="53.128118" lon="8.980434">
        <ele>4.877586</ele>
        <time>2026-03-20T12:11:06.305Z</time>
      </trkpt>
      <trkpt lat="53.127108" lon="8.981497">
        <ele>4.484598</ele>
        <time>2026-03-20T12:11:31.844Z</time>
      </trkpt>
      <trkpt lat="53.126482" lon="8.982157">
        <ele>4.003364</ele>
        <time>2026-03-20T12:11:45.539Z</time>
      </trkpt>
      <trkpt lat="53.125705" lon="8.983080">
        <ele>3.978756</ele>
        <time>2026-03-20T12:12:04.807Z</time>
      </trkpt>
      <trkpt lat="53.125496" lon="8.983378">
        <ele>4.020797</ele>
        <time>2026-03-20T12:12:11.116Z</time>
      </trkpt>
      <trkpt lat="53.125347" lon="8.983740">
        <ele>4.061059</ele>
        <time>2026-03-20T12:12:17.599Z</time>
      </trkpt>
      <trkpt lat="53.125217" lon="8.983963">
        <ele>4.089574</ele>
        <time>2026-03-20T12:12:22.462Z</time>
      </trkpt>
      <trkpt lat="53.124192" lon="8.984750">
        <ele>4.581912</ele>
        <time>2026-03-20T12:12:53.314Z</time>
      </trkpt>
      <trkpt lat="53.123990" lon="8.985223">
        <ele>4.775012</ele>
        <time>2026-03-20T12:13:01.721Z</time>
      </trkpt>
      <trkpt lat="53.123450" lon="8.986762">
        <ele>4.960504</ele>
        <time>2026-03-20T12:13:24.922Z</time>
      </trkpt>
      <trkpt lat="53.122707" lon="8.988860">
        <ele>4.371554</ele>
        <time>2026-03-20T12:13:54.551Z</time>
      </trkpt>
      <trkpt lat="53.122629" lon="8.989134">
        <ele>4.366750</ele>
        <time>2026-03-20T12:13:58.403Z</time>
      </trkpt>
      <trkpt lat="53.122260" lon="8.990984">
        <ele>4.335871</ele>
        <time>2026-03-20T12:14:24.733Z</time>
      </trkpt>
      <trkpt lat="53.122148" lon="8.991308">
        <ele>4.329948</ele>
        <time>2026-03-20T12:14:29.832Z</time>
      </trkpt>
      <trkpt lat="53.122048" lon="8.991488">
        <ele>4.326992</ele>
        <time>2026-03-20T12:14:33.177Z</time>
      </trkpt>
      <trkpt lat="53.121915" lon="8.991624">
        <ele>4.355724</ele>
        <time>2026-03-20T12:14:36.719Z</time>
      </trkpt>
      <trkpt lat="53.121746" lon="8.991780">
        <ele>4.391297</ele>
        <time>2026-03-20T12:14:41.118Z</time>
      </trkpt>
      <trkpt lat="53.121653" lon="8.991952">
        <ele>4.416880</ele>
        <time>2026-03-20T12:14:44.293Z</time>
      </trkpt>
      <trkpt lat="53.121591" lon="8.992097">
        <ele>4.436553</ele>
        <time>2026-03-20T12:14:46.750Z</time>
      </trkpt>
      <trkpt lat="53.121454" lon="8.992703">
        <ele>4.508109</ele>
        <time>2026-03-20T12:14:55.637Z</time>
      </trkpt>
      <trkpt lat="53.121141" lon="8.994477">
        <ele>4.736088</ele>
        <time>2026-03-20T12:15:21.476Z</time>
      </trkpt>
      <trkpt lat="53.120566" lon="8.997735">
        <ele>5.108108</ele>
        <time>2026-03-20T12:16:09.213Z</time>
      </trkpt>
      <trkpt lat="53.120456" lon="8.998288">
        <ele>5.093370</ele>
        <time>2026-03-20T12:16:16.983Z</time>
      </trkpt>
      <trkpt lat="53.119689" lon="9.002430">
        <ele>4.673526</ele>
        <time>2026-03-20T12:17:11.984Z</time>
      </trkpt>
      <trkpt lat="53.119717" lon="9.003786">
        <ele>4.727245</ele>
        <time>2026-03-20T12:17:30.325Z</time>
      </trkpt>
      <trkpt lat="53.119553" lon="9.009653">
        <ele>5.223672</ele>
        <time>2026-03-20T12:18:51.954Z</time>
      </trkpt>
      <trkpt lat="53.119448" lon="9.011599">
        <ele>5.178110</ele>
        <time>2026-03-20T12:19:17.148Z</time>
      </trkpt>
      <trkpt lat="53.119433" lon="9.012282">
        <ele>5.162462</ele>
        <time>2026-03-20T12:19:25.834Z</time>
      </trkpt>
      <trkpt lat="53.119445" lon="9.013236">
        <ele>5.140615</ele>
        <time>2026-03-20T12:19:38.058Z</time>
      </trkpt>
      <trkpt lat="53.119540" lon="9.014701">
        <ele>5.117495</ele>
        <time>2026-03-20T12:19:58.601Z</time>
      </trkpt>
      <trkpt lat="53.119695" lon="9.016518">
        <ele>5.228143</ele>
        <time>2026-03-20T12:20:24.554Z</time>
      </trkpt>
      <trkpt lat="53.119679" lon="9.016678">
        <ele>5.237922</ele>
        <time>2026-03-20T12:20:26.779Z</time>
      </trkpt>
      <trkpt lat="53.119647" lon="9.016821">
        <ele>5.247123</ele>
        <time>2026-03-20T12:20:28.845Z</time>
      </trkpt>
      <trkpt lat="53.119596" lon="9.016902">
        <ele>5.254201</ele>
        <time>2026-03-20T12:20:30.411Z</time>
      </trkpt>
      <trkpt lat="53.118274" lon="9.018196">
        <ele>4.901210</ele>
        <time>2026-03-20T12:21:01.984Z</time>
      </trkpt>
      <trkpt lat="53.118192" lon="9.018439">
        <ele>4.845637</ele>
        <time>2026-03-20T12:21:05.495Z</time>
      </trkpt>
      <trkpt lat="53.118037" lon="9.019199">
        <ele>4.694581</ele>
        <time>2026-03-20T12:21:15.830Z</time>
      </trkpt>
      <trkpt lat="53.117805" lon="9.020515">
        <ele>4.750136</ele>
        <time>2026-03-20T12:21:34.365Z</time>
      </trkpt>
      <trkpt lat="53.117661" lon="9.023283">
        <ele>4.906785</ele>
        <time>2026-03-20T12:22:12.378Z</time>
      </trkpt>
      <trkpt lat="53.117285" lon="9.028162">
        <ele>5.444252</ele>
        <time>2026-03-20T12:23:19.525Z</time>
      </trkpt>
      <trkpt lat="53.117307" lon="9.029461">
        <ele>5.809233</ele>
        <time>2026-03-20T12:23:39.184Z</time>
      </trkpt>
      <trkpt lat="53.117338" lon="9.030763">
        <ele>6.175200</ele>
        <time>2026-03-20T12:23:58.322Z</time>
      </trkpt>
      <trkpt lat="53.116987" lon="9.032441">
        <ele>6.243596</ele>
        <time>2026-03-20T12:24:22.482Z</time>
      </trkpt>
      <trkpt lat="53.116882" lon="9.032958">
        <ele>6.240015</ele>
        <time>2026-03-20T12:24:29.322Z</time>
      </trkpt>
      <trkpt lat="53.116810" lon="9.033325">
        <ele>6.237481</ele>
        <time>2026-03-20T12:24:34.224Z</time>
      </trkpt>
      <trkpt lat="53.116809" lon="9.033889">
        <ele>6.233780</ele>
        <time>2026-03-20T12:24:41.543Z</time>
      </trkpt>
      <trkpt lat="53.116843" lon="9.036434">
        <ele>6.205889</ele>
        <time>2026-03-20T12:25:15.675Z</time>
      </trkpt>
      <trkpt lat="53.116855" lon="9.037316">
        <ele>6.244570</ele>
        <time>2026-03-20T12:25:27.299Z</time>
      </trkpt>
      <trkpt lat="53.116864" lon="9.038200">
        <ele>6.334625</ele>
        <time>2026-03-20T12:25:39.088Z</time>
      </trkpt>
      <trkpt lat="53.116863" lon="9.039456">
        <ele>6.462557</ele>
        <time>2026-03-20T12:25:56.659Z</time>
      </trkpt>
      <trkpt lat="53.116862" lon="9.039704">
        <ele>6.487818</ele>
        <time>2026-03-20T12:26:00.196Z</time>
      </trkpt>
      <trkpt lat="53.116865" lon="9.040039">
        <ele>6.530606</ele>
        <time>2026-03-20T12:26:04.989Z</time>
      </trkpt>
      <trkpt lat="53.116867" lon="9.041062">
        <ele>6.692000</ele>
        <time>2026-03-20T12:26:19.876Z</time>
      </trkpt>
      <trkpt lat="53.116870" lon="9.042247">
        <ele>6.878952</ele>
        <time>2026-03-20T12:26:36.452Z</time>
      </trkpt>
      <trkpt lat="53.116871" lon="9.042409">
        <ele>6.904512</ele>
        <time>2026-03-20T12:26:38.653Z</time>
      </trkpt>
      <trkpt lat="53.116874" lon="9.043561">
        <ele>7.056420</ele>
        <time>2026-03-20T12:26:54.057Z</time>
      </trkpt>
      <trkpt lat="53.116876" lon="9.044196">
        <ele>7.128745</ele>
        <time>2026-03-20T12:27:02.564Z</time>
      </trkpt>
      <trkpt lat="53.116877" lon="9.044759">
        <ele>7.192869</ele>
        <time>2026-03-20T12:27:10.151Z</time>
      </trkpt>
      <trkpt lat="53.116882" lon="9.046579">
        <ele>7.522526</ele>
        <time>2026-03-20T12:27:36.345Z</time>
      </trkpt>
      <trkpt lat="53.116886" lon="9.048372">
        <ele>8.039562</ele>
        <time>2026-03-20T12:28:02.811Z</time>
      </trkpt>
      <trkpt lat="53.116890" lon="9.048856">
        <ele>8.179142</ele>
        <time>2026-03-20T12:28:09.611Z</time>
      </trkpt>
      <trkpt lat="53.116894" lon="9.049299">
        <ele>8.270243</ele>
        <time>2026-03-20T12:28:15.746Z</time>
      </trkpt>
      <trkpt lat="53.116897" lon="9.050821">
        <ele>8.577751</ele>
        <time>2026-03-20T12:28:37.228Z</time>
      </trkpt>
      <trkpt lat="53.116898" lon="9.051210">
        <ele>8.656346</ele>
        <time>2026-03-20T12:28:42.783Z</time>
      </trkpt>
      <trkpt lat="53.116903" lon="9.051826">
        <ele>8.780815</ele>
        <time>2026-03-20T12:28:51.583Z</time>
      </trkpt>
      <trkpt lat="53.116909" lon="9.053234">
        <ele>8.932423</ele>
        <time>2026-03-20T12:29:11.045Z</time>
      </trkpt>
      <trkpt lat="53.116910" lon="9.055009">
        <ele>9.120097</ele>
        <time>2026-03-20T12:29:35.337Z</time>
      </trkpt>
      <trkpt lat="53.116909" lon="9.055124">
        <ele>9.133827</ele>
        <time>2026-03-20T12:29:36.848Z</time>
      </trkpt>
      <trkpt lat="53.116906" lon="9.055268">
        <ele>9.151028</ele>
        <time>2026-03-20T12:29:38.773Z</time>
      </trkpt>
      <trkpt lat="53.116887" lon="9.055949">
        <ele>9.232415</ele>
        <time>2026-03-20T12:29:48.102Z</time>
      </trkpt>
      <trkpt lat="53.116895" lon="9.056035">
        <ele>9.242805</ele>
        <time>2026-03-20T12:29:49.337Z</time>
      </trkpt>
      <trkpt lat="53.116752" lon="9.057692">
        <ele>9.442656</ele>
        <time>2026-03-20T12:30:13.639Z</time>
      </trkpt>
      <trkpt lat="53.116639" lon="9.057697">
        <ele>9.457846</ele>
        <time>2026-03-20T12:30:16.958Z</time>
      </trkpt>
      <trkpt lat="53.116298" lon="9.057685">
        <ele>9.405756</ele>
        <time>2026-03-20T12:30:27.157Z</time>
      </trkpt>
      <trkpt lat="53.116335" lon="9.058570">
        <ele>9.324438</ele>
        <time>2026-03-20T12:30:42.868Z</time>
      </trkpt>
      <trkpt lat="53.116358" lon="9.058697">
        <ele>9.312279</ele>
        <time>2026-03-20T12:30:44.649Z</time>
      </trkpt>
      <trkpt lat="53.116498" lon="9.058863">
        <ele>9.286036</ele>
        <time>2026-03-20T12:30:48.497Z</time>
      </trkpt>
      <trkpt lat="53.116750" lon="9.059083">
        <ele>9.242587</ele>
        <time>2026-03-20T12:30:54.716Z</time>
      </trkpt>
      <trkpt lat="53.116960" lon="9.059810">
        <ele>9.156720</ele>
        <time>2026-03-20T12:31:04.528Z</time>
      </trkpt>
      <trkpt lat="53.116946" lon="9.061099">
        <ele>8.958968</ele>
        <time>2026-03-20T12:31:20.741Z</time>
      </trkpt>
      <trkpt lat="53.116864" lon="9.061494">
        <ele>8.894856</ele>
        <time>2026-03-20T12:31:26.050Z</time>
      </trkpt>
      <trkpt lat="53.116841" lon="9.061607">
        <ele>8.876554</ele>
        <time>2026-03-20T12:31:27.612Z</time>
      </trkpt>
      <trkpt lat="53.116580" lon="9.062994">
        <ele>8.745433</ele>
        <time>2026-03-20T12:31:46.702Z</time>
      </trkpt>
      <trkpt lat="53.116432" lon="9.063791">
        <ele>8.778358</ele>
        <time>2026-03-20T12:31:58.443Z</time>
      </trkpt>
      <trkpt lat="53.116402" lon="9.063937">
        <ele>8.784449</ele>
        <time>2026-03-20T12:32:00.577Z</time>
      </trkpt>
      <trkpt lat="53.115655" lon="9.067113">
        <ele>9.037510</ele>
        <time>2026-03-20T12:32:46.530Z</time>
      </trkpt>
      <trkpt lat="53.115451" lon="9.068136">
        <ele>9.147994</ele>
        <time>2026-03-20T12:33:01.995Z</time>
      </trkpt>
      <trkpt lat="53.115119" lon="9.069807">
        <ele>9.214492</ele>
        <time>2026-03-20T12:33:26.336Z</time>
      </trkpt>
      <trkpt lat="53.115100" lon="9.069899">
        <ele>9.218023</ele>
        <time>2026-03-20T12:33:27.613Z</time>
      </trkpt>
      <trkpt lat="53.115012" lon="9.070328">
        <ele>9.234476</ele>
        <time>2026-03-20T12:33:33.477Z</time>
      </trkpt>
      <trkpt lat="53.114086" lon="9.074846">
        <ele>8.732850</ele>
        <time>2026-03-20T12:34:34.462Z</time>
      </trkpt>
      <trkpt lat="53.113769" lon="9.076079">
        <ele>8.670359</ele>
        <time>2026-03-20T12:34:52.273Z</time>
      </trkpt>
      <trkpt lat="53.113552" lon="9.077663">
        <ele>8.518968</ele>
        <time>2026-03-20T12:35:14.302Z</time>
      </trkpt>
      <trkpt lat="53.113475" lon="9.077963">
        <ele>8.479590</ele>
        <time>2026-03-20T12:35:18.714Z</time>
      </trkpt>
      <trkpt lat="53.112985" lon="9.079204">
        <ele>8.300312</ele>
        <time>2026-03-20T12:35:37.654Z</time>
      </trkpt>
      <trkpt lat="53.112753" lon="9.079075">
        <ele>8.207098</ele>
        <time>2026-03-20T12:35:42.569Z</time>
      </trkpt>
      <trkpt lat="53.112678" lon="9.079084">
        <ele>8.169383</ele>
        <time>2026-03-20T12:35:44.075Z</time>
      </trkpt>
      <trkpt lat="53.112529" lon="9.079101">
        <ele>8.094474</ele>
        <time>2026-03-20T12:35:49.270Z</time>
      </trkpt>
      <trkpt lat="53.112150" lon="9.079308">
        <ele>7.894424</ele>
        <time>2026-03-20T12:35:57.207Z</time>
      </trkpt>
      <trkpt lat="53.111852" lon="9.079606">
        <ele>7.720096</ele>
        <time>2026-03-20T12:36:04.289Z</time>
      </trkpt>
      <trkpt lat="53.111497" lon="9.080126">
        <ele>7.483000</ele>
        <time>2026-03-20T12:36:14.067Z</time>
      </trkpt>
      <trkpt lat="53.110619" lon="9.079900">
        <ele>7.093331</ele>
        <time>2026-03-20T12:36:32.860Z</time>
      </trkpt>
      <trkpt lat="53.109949" lon="9.079728">
        <ele>6.809077</ele>
        <time>2026-03-20T12:36:46.971Z</time>
      </trkpt>
      <trkpt lat="53.108460" lon="9.079802">
        <ele>6.191817</ele>
        <time>2026-03-20T12:37:17.104Z</time>
      </trkpt>
      <trkpt lat="53.107342" lon="9.079667">
        <ele>5.887354</ele>
        <time>2026-03-20T12:37:41.337Z</time>
      </trkpt>
      <trkpt lat="53.107216" lon="9.079626">
        <ele>5.888959</ele>
        <time>2026-03-20T12:37:44.182Z</time>
      </trkpt>
      <trkpt lat="53.107050" lon="9.079460">
        <ele>5.891379</ele>
        <time>2026-03-20T12:37:51.364Z</time>
      </trkpt>
      <trkpt lat="53.106859" lon="9.079351">
        <ele>5.893903</ele>
        <time>2026-03-20T12:37:55.824Z</time>
      </trkpt>
      <trkpt lat="53.104422" lon="9.077957">
        <ele>6.131892</ele>
        <time>2026-03-20T12:38:54.243Z</time>
      </trkpt>
      <trkpt lat="53.103584" lon="9.077497">
        <ele>6.474082</ele>
        <time>2026-03-20T12:39:14.971Z</time>
      </trkpt>
      <trkpt lat="53.101853" lon="9.076463">
        <ele>7.142317</ele>
        <time>2026-03-20T12:39:59.962Z</time>
      </trkpt>
      <trkpt lat="53.100806" lon="9.076663">
        <ele>7.404104</ele>
        <time>2026-03-20T12:40:25.042Z</time>
      </trkpt>
      <trkpt lat="53.100131" lon="9.076749">
        <ele>7.205413</ele>
        <time>2026-03-20T12:40:40.079Z</time>
      </trkpt>
      <trkpt lat="53.099996" lon="9.076803">
        <ele>7.164664</ele>
        <time>2026-03-20T12:40:43.092Z</time>
      </trkpt>
      <trkpt lat="53.099734" lon="9.076935">
        <ele>7.084326</ele>
        <time>2026-03-20T12:40:49.005Z</time>
      </trkpt>
      <trkpt lat="53.099677" lon="9.076963">
        <ele>7.066884</ele>
        <time>2026-03-20T12:40:50.279Z</time>
      </trkpt>
      <trkpt lat="53.098096" lon="9.077607">
        <ele>6.626681</ele>
        <time>2026-03-20T12:41:28.089Z</time>
      </trkpt>
      <trkpt lat="53.095005" lon="9.078944">
        <ele>6.406919</ele>
        <time>2026-03-20T12:42:46.222Z</time>
      </trkpt>
      <trkpt lat="53.094355" lon="9.079189">
        <ele>6.555737</ele>
        <time>2026-03-20T12:43:03.313Z</time>
      </trkpt>
      <trkpt lat="53.093917" lon="9.079361">
        <ele>6.656227</ele>
        <time>2026-03-20T12:43:14.101Z</time>
      </trkpt>
      <trkpt lat="53.093710" lon="9.079361">
        <ele>6.737189</ele>
        <time>2026-03-20T12:43:19.170Z</time>
      </trkpt>
      <trkpt lat="53.093556" lon="9.079361">
        <ele>6.806921</ele>
        <time>2026-03-20T12:43:23.020Z</time>
      </trkpt>
      <trkpt lat="53.092963" lon="9.079473">
        <ele>7.077156</ele>
        <time>2026-03-20T12:43:37.996Z</time>
      </trkpt>
      <trkpt lat="53.092644" lon="9.079619">
        <ele>7.226957</ele>
        <time>2026-03-20T12:43:46.118Z</time>
      </trkpt>
      <trkpt lat="53.092316" lon="9.079840">
        <ele>7.387175</ele>
        <time>2026-03-20T12:43:54.465Z</time>
      </trkpt>
      <trkpt lat="53.091938" lon="9.080065">
        <ele>7.450937</ele>
        <time>2026-03-20T12:44:03.501Z</time>
      </trkpt>
      <trkpt lat="53.091565" lon="9.080334">
        <ele>7.382016</ele>
        <time>2026-03-20T12:44:12.196Z</time>
      </trkpt>
      <trkpt lat="53.091427" lon="9.080518">
        <ele>7.352041</ele>
        <time>2026-03-20T12:44:15.888Z</time>
      </trkpt>
      <trkpt lat="53.090953" lon="9.081309">
        <ele>7.238258</ele>
        <time>2026-03-20T12:44:29.939Z</time>
      </trkpt>
      <trkpt lat="53.090827" lon="9.081634">
        <ele>7.198867</ele>
        <time>2026-03-20T12:44:34.869Z</time>
      </trkpt>
      <trkpt lat="53.090744" lon="9.081934">
        <ele>7.196130</ele>
        <time>2026-03-20T12:44:39.139Z</time>
      </trkpt>
      <trkpt lat="53.090422" lon="9.082408">
        <ele>7.298032</ele>
        <time>2026-03-20T12:44:49.674Z</time>
      </trkpt>
      <trkpt lat="53.088031" lon="9.085627">
        <ele>8.473831</ele>
        <time>2026-03-20T12:46:10.499Z</time>
      </trkpt>
      <trkpt lat="53.087961" lon="9.085722">
        <ele>8.554685</ele>
        <time>2026-03-20T12:46:12.864Z</time>
      </trkpt>
      <trkpt lat="53.086876" lon="9.087392">
        <ele>10.014604</ele>
        <time>2026-03-20T12:46:52.647Z</time>
      </trkpt>
      <trkpt lat="53.086576" lon="9.087961">
        <ele>10.411610</ele>
        <time>2026-03-20T12:47:04.408Z</time>
      </trkpt>
      <trkpt lat="53.087039" lon="9.092796">
        <ele>12.330763</ele>
        <time>2026-03-20T12:48:17.713Z</time>
      </trkpt>
      <trkpt lat="53.087882" lon="9.101939">
        <ele>14.127813</ele>
        <time>2026-03-20T12:50:26.769Z</time>
      </trkpt>
      <trkpt lat="53.087845" lon="9.102051">
        <ele>14.162457</ele>
        <time>2026-03-20T12:50:28.712Z</time>
      </trkpt>
      <trkpt lat="53.087783" lon="9.102217">
        <ele>14.215437</ele>
        <time>2026-03-20T12:50:31.735Z</time>
      </trkpt>
      <trkpt lat="53.087370" lon="9.103036">
        <ele>15.037084</ele>
        <time>2026-03-20T12:50:49.083Z</time>
      </trkpt>
      <trkpt lat="53.086963" lon="9.103704">
        <ele>15.850967</ele>
        <time>2026-03-20T12:51:05.878Z</time>
      </trkpt>
      <trkpt lat="53.085950" lon="9.105230">
        <ele>17.110417</ele>
        <time>2026-03-20T12:51:44.876Z</time>
      </trkpt>
      <trkpt lat="53.084629" lon="9.107105">
        <ele>17.447208</ele>
        <time>2026-03-20T12:52:21.639Z</time>
      </trkpt>
      <trkpt lat="53.082883" lon="9.109530">
        <ele>17.048182</ele>
        <time>2026-03-20T12:53:10.405Z</time>
      </trkpt>
      <trkpt lat="53.082025" lon="9.110768">
        <ele>17.028843</ele>
        <time>2026-03-20T12:53:35.401Z</time>
      </trkpt>
      <trkpt lat="53.081980" lon="9.110857">
        <ele>17.040605</ele>
        <time>2026-03-20T12:53:36.973Z</time>
      </trkpt>
      <trkpt lat="53.080820" lon="9.112584">
        <ele>17.403394</ele>
        <time>2026-03-20T12:54:13.006Z</time>
      </trkpt>
      <trkpt lat="53.080206" lon="9.113498">
        <ele>17.858895</ele>
        <time>2026-03-20T12:54:33.071Z</time>
      </trkpt>
      <trkpt lat="53.079812" lon="9.114085">
        <ele>18.151297</ele>
        <time>2026-03-20T12:54:46.290Z</time>
      </trkpt>
      <trkpt lat="53.079549" lon="9.114477">
        <ele>18.365426</ele>
        <time>2026-03-20T12:54:55.568Z</time>
      </trkpt>
      <trkpt lat="53.079137" lon="9.115089">
        <ele>18.732584</ele>
        <time>2026-03-20T12:55:09.529Z</time>
      </trkpt>
      <trkpt lat="53.078795" lon="9.115599">
        <ele>19.037890</ele>
        <time>2026-03-20T12:55:20.857Z</time>
      </trkpt>
      <trkpt lat="53.077921" lon="9.115508">
        <ele>19.587209</ele>
        <time>2026-03-20T12:55:42.327Z</time>
      </trkpt>
      <trkpt lat="53.076294" lon="9.115315">
        <ele>20.426424</ele>
        <time>2026-03-20T12:56:22.127Z</time>
      </trkpt>
      <trkpt lat="53.075939" lon="9.115789">
        <ele>20.486149</ele>
        <time>2026-03-20T12:56:32.982Z</time>
      </trkpt>
      <trkpt lat="53.075116" lon="9.117043">
        <ele>20.632575</ele>
        <time>2026-03-20T12:56:57.912Z</time>
      </trkpt>
      <trkpt lat="53.073324" lon="9.119765">
        <ele>20.413435</ele>
        <time>2026-03-20T12:57:50.276Z</time>
      </trkpt>
      <trkpt lat="53.072167" lon="9.121496">
        <ele>20.509606</ele>
        <time>2026-03-20T12:58:25.941Z</time>
      </trkpt>
      <trkpt lat="53.071257" lon="9.122370">
        <ele>20.702486</ele>
        <time>2026-03-20T12:58:49.695Z</time>
      </trkpt>
      <trkpt lat="53.070901" lon="9.122697">
        <ele>20.777134</ele>
        <time>2026-03-20T12:58:59.036Z</time>
      </trkpt>
      <trkpt lat="53.069476" lon="9.124125">
        <ele>21.384375</ele>
        <time>2026-03-20T12:59:39.078Z</time>
      </trkpt>
      <trkpt lat="53.069017" lon="9.124585">
        <ele>21.440818</ele>
        <time>2026-03-20T12:59:51.970Z</time>
      </trkpt>
      <trkpt lat="53.068034" lon="9.125566">
        <ele>21.327808</ele>
        <time>2026-03-20T13:00:17.848Z</time>
      </trkpt>
      <trkpt lat="53.067679" lon="9.125659">
        <ele>21.291821</ele>
        <time>2026-03-20T13:00:25.721Z</time>
      </trkpt>
      <trkpt lat="53.067395" lon="9.125734">
        <ele>21.250712</ele>
        <time>2026-03-20T13:00:32.035Z</time>
      </trkpt>
      <trkpt lat="53.065970" lon="9.126220">
        <ele>21.042762</ele>
        <time>2026-03-20T13:01:03.426Z</time>
      </trkpt>
      <trkpt lat="53.065625" lon="9.126337">
        <ele>21.166530</ele>
        <time>2026-03-20T13:01:11.496Z</time>
      </trkpt>
      <trkpt lat="53.062012" lon="9.127986">
        <ele>22.531248</ele>
        <time>2026-03-20T13:02:42.727Z</time>
      </trkpt>
      <trkpt lat="53.061231" lon="9.126128">
        <ele>22.047247</ele>
        <time>2026-03-20T13:03:10.284Z</time>
      </trkpt>
      <trkpt lat="53.060787" lon="9.125072">
        <ele>21.489000</ele>
        <time>2026-03-20T13:03:25.278Z</time>
      </trkpt>
      <trkpt lat="53.060510" lon="9.122910">
        <ele>20.673296</ele>
        <time>2026-03-20T13:03:51.936Z</time>
      </trkpt>
      <trkpt lat="53.059044" lon="9.121576">
        <ele>20.237427</ele>
        <time>2026-03-20T13:04:27.985Z</time>
      </trkpt>
      <trkpt lat="53.057451" lon="9.119536">
        <ele>20.020061</ele>
        <time>2026-03-20T13:05:12.166Z</time>
      </trkpt>
      <trkpt lat="53.057401" lon="9.119467">
        <ele>20.005918</ele>
        <time>2026-03-20T13:05:13.576Z</time>
      </trkpt>
      <trkpt lat="53.054631" lon="9.119379">
        <ele>19.223423</ele>
        <time>2026-03-20T13:06:19.156Z</time>
      </trkpt>
      <trkpt lat="53.053801" lon="9.121987">
        <ele>18.509207</ele>
        <time>2026-03-20T13:07:21.853Z</time>
      </trkpt>
      <trkpt lat="53.050196" lon="9.118492">
        <ele>17.618895</ele>
        <time>2026-03-20T13:09:53.352Z</time>
      </trkpt>
      <trkpt lat="53.044422" lon="9.112641">
        <ele>16.834288</ele>
        <time>2026-03-20T13:14:00.275Z</time>
      </trkpt>
      <trkpt lat="53.038976" lon="9.107152">
        <ele>18.574002</ele>
        <time>2026-03-20T13:18:04.117Z</time>
      </trkpt>
      <trkpt lat="53.038050" lon="9.106276">
        <ele>18.853961</ele>
        <time>2026-03-20T13:18:44.735Z</time>
      </trkpt>
      <trkpt lat="53.036149" lon="9.109152">
        <ele>18.848311</ele>
        <time>2026-03-20T13:19:42.725Z</time>
      </trkpt>
      <trkpt lat="53.034085" lon="9.113363">
        <ele>18.063999</ele>
        <time>2026-03-20T13:20:49.824Z</time>
      </trkpt>
      <trkpt lat="53.032748" lon="9.116041">
        <ele>19.580367</ele>
        <time>2026-03-20T13:21:44.885Z</time>
      </trkpt>
      <trkpt lat="53.032624" lon="9.116287">
        <ele>19.768838</ele>
        <time>2026-03-20T13:21:50.094Z</time>
      </trkpt>
      <trkpt lat="53.032587" lon="9.116362">
        <ele>19.825797</ele>
        <time>2026-03-20T13:21:51.660Z</time>
      </trkpt>
      <trkpt lat="53.032559" lon="9.116318">
        <ele>19.863412</ele>
        <time>2026-03-20T13:21:52.674Z</time>
      </trkpt>
      <trkpt lat="53.032522" lon="9.116381">
        <ele>19.915117</ele>
        <time>2026-03-20T13:21:54.504Z</time>
      </trkpt>
      <trkpt lat="53.032488" lon="9.116330">
        <ele>19.959824</ele>
        <time>2026-03-20T13:21:56.038Z</time>
      </trkpt>
      <trkpt lat="53.032359" lon="9.116129">
        <ele>20.132430</ele>
        <time>2026-03-20T13:22:01.990Z</time>
      </trkpt>
      <trkpt lat="53.032227" lon="9.115927">
        <ele>20.307582</ele>
        <time>2026-03-20T13:22:07.936Z</time>
      </trkpt>
      <trkpt lat="53.032036" lon="9.115631">
        <ele>20.562504</ele>
        <time>2026-03-20T13:22:16.546Z</time>
      </trkpt>
      <trkpt lat="53.031843" lon="9.115334">
        <ele>20.681198</ele>
        <time>2026-03-20T13:22:25.044Z</time>
      </trkpt>
      <trkpt lat="53.031613" lon="9.114979">
        <ele>20.779611</ele>
        <time>2026-03-20T13:22:34.808Z</time>
      </trkpt>
      <trkpt lat="53.031258" lon="9.114419">
        <ele>20.933068</ele>
        <time>2026-03-20T13:22:49.911Z</time>
      </trkpt>
      <trkpt lat="53.031068" lon="9.114139">
        <ele>21.012686</ele>
        <time>2026-03-20T13:22:57.557Z</time>
      </trkpt>
      <trkpt lat="53.030605" lon="9.113430">
        <ele>21.150192</ele>
        <time>2026-03-20T13:23:15.671Z</time>
      </trkpt>
      <trkpt lat="53.030241" lon="9.112858">
        <ele>20.995147</ele>
        <time>2026-03-20T13:23:29.867Z</time>
      </trkpt>
      <trkpt lat="53.029944" lon="9.112392">
        <ele>20.868732</ele>
        <time>2026-03-20T13:23:41.294Z</time>
      </trkpt>
      <trkpt lat="53.029914" lon="9.112345">
        <ele>20.855971</ele>
        <time>2026-03-20T13:23:42.478Z</time>
      </trkpt>
      <trkpt lat="53.029617" lon="9.111878">
        <ele>20.729427</ele>
        <time>2026-03-20T13:23:54.178Z</time>
      </trkpt>
      <trkpt lat="53.029437" lon="9.111596">
        <ele>20.652865</ele>
        <time>2026-03-20T13:24:01.132Z</time>
      </trkpt>
      <trkpt lat="53.029287" lon="9.111361">
        <ele>20.554294</ele>
        <time>2026-03-20T13:24:06.779Z</time>
      </trkpt>
      <trkpt lat="53.029259" lon="9.111318">
        <ele>20.530448</ele>
        <time>2026-03-20T13:24:07.823Z</time>
      </trkpt>
      <trkpt lat="53.028993" lon="9.110912">
        <ele>20.304551</ele>
        <time>2026-03-20T13:24:17.460Z</time>
      </trkpt>
      <trkpt lat="53.028940" lon="9.110831">
        <ele>20.259515</ele>
        <time>2026-03-20T13:24:19.389Z</time>
      </trkpt>
      <trkpt lat="53.028662" lon="9.110407">
        <ele>20.023506</ele>
        <time>2026-03-20T13:24:29.373Z</time>
      </trkpt>
      <trkpt lat="53.028519" lon="9.110190">
        <ele>19.902386</ele>
        <time>2026-03-20T13:24:34.547Z</time>
      </trkpt>
      <trkpt lat="53.028466" lon="9.110108">
        <ele>19.857094</ele>
        <time>2026-03-20T13:24:36.503Z</time>
      </trkpt>
      <trkpt lat="53.028315" lon="9.109877">
        <ele>19.728724</ele>
        <time>2026-03-20T13:24:41.956Z</time>
      </trkpt>
      <trkpt lat="53.026945" lon="9.107772">
        <ele>19.229932</ele>
        <time>2026-03-20T13:25:20.965Z</time>
      </trkpt>
      <trkpt lat="53.025713" lon="9.105868">
        <ele>20.010797</ele>
        <time>2026-03-20T13:26:02.431Z</time>
      </trkpt>
      <trkpt lat="53.025067" lon="9.104857">
        <ele>20.769835</ele>
        <time>2026-03-20T13:26:25.025Z</time>
      </trkpt>
      <trkpt lat="53.023721" lon="9.102793">
        <ele>22.899652</ele>
        <time>2026-03-20T13:27:14.442Z</time>
      </trkpt>
      <trkpt lat="53.023507" lon="9.102463">
        <ele>23.303963</ele>
        <time>2026-03-20T13:27:22.592Z</time>
      </trkpt>
      <trkpt lat="53.023354" lon="9.102225">
        <ele>23.594200</ele>
        <time>2026-03-20T13:27:28.478Z</time>
      </trkpt>
      <trkpt lat="53.022292" lon="9.100569">
        <ele>25.226110</ele>
        <time>2026-03-20T13:28:09.565Z</time>
      </trkpt>
      <trkpt lat="53.022032" lon="9.100164">
        <ele>25.511671</ele>
        <time>2026-03-20T13:28:18.893Z</time>
      </trkpt>
      <trkpt lat="53.020694" lon="9.098124">
        <ele>26.282283</ele>
        <time>2026-03-20T13:29:00.004Z</time>
      </trkpt>
      <trkpt lat="53.020359" lon="9.097546">
        <ele>26.349230</ele>
        <time>2026-03-20T13:29:10.724Z</time>
      </trkpt>
      <trkpt lat="53.020248" lon="9.097461">
        <ele>26.366176</ele>
        <time>2026-03-20T13:29:13.497Z</time>
      </trkpt>
      <trkpt lat="53.020213" lon="9.097374">
        <ele>26.374906</ele>
        <time>2026-03-20T13:29:14.930Z</time>
      </trkpt>
      <trkpt lat="53.020103" lon="9.097390">
        <ele>26.396637</ele>
        <time>2026-03-20T13:29:18.225Z</time>
      </trkpt>
      <trkpt lat="53.018707" lon="9.096497">
        <ele>27.377380</ele>
        <time>2026-03-20T13:30:05.610Z</time>
      </trkpt>
      <trkpt lat="53.017598" lon="9.095779">
        <ele>28.508533</ele>
        <time>2026-03-20T13:30:45.691Z</time>
      </trkpt>
      <trkpt lat="53.015922" lon="9.094684">
        <ele>30.579911</ele>
        <time>2026-03-20T13:31:46.178Z</time>
      </trkpt>
      <trkpt lat="53.015670" lon="9.094587">
        <ele>30.904428</ele>
        <time>2026-03-20T13:31:55.079Z</time>
      </trkpt>
      <trkpt lat="53.015470" lon="9.094533">
        <ele>31.158630</ele>
        <time>2026-03-20T13:32:02.103Z</time>
      </trkpt>
      <trkpt lat="53.015264" lon="9.094428">
        <ele>31.428949</ele>
        <time>2026-03-20T13:32:09.484Z</time>
      </trkpt>
      <trkpt lat="53.014925" lon="9.094106">
        <ele>31.935541</ele>
        <time>2026-03-20T13:32:23.294Z</time>
      </trkpt>
      <trkpt lat="53.014611" lon="9.093817">
        <ele>32.421112</ele>
        <time>2026-03-20T13:32:36.387Z</time>
      </trkpt>
      <trkpt lat="53.014448" lon="9.093719">
        <ele>32.655610</ele>
        <time>2026-03-20T13:32:42.599Z</time>
      </trkpt>
      <trkpt lat="53.014326" lon="9.093638">
        <ele>32.833339</ele>
        <time>2026-03-20T13:32:47.227Z</time>
      </trkpt>
      <trkpt lat="53.013708" lon="9.093241">
        <ele>33.729674</ele>
        <time>2026-03-20T13:33:10.427Z</time>
      </trkpt>
      <trkpt lat="53.012019" lon="9.092154">
        <ele>34.332329</ele>
        <time>2026-03-20T13:34:08.618Z</time>
      </trkpt>
      <trkpt lat="53.011599" lon="9.094888">
        <ele>31.311932</ele>
        <time>2026-03-20T13:34:38.099Z</time>
      </trkpt>
      <trkpt lat="53.011538" lon="9.095035">
        <ele>31.078648</ele>
        <time>2026-03-20T13:34:39.850Z</time>
      </trkpt>
      <trkpt lat="53.011465" lon="9.095054">
        <ele>30.918210</ele>
        <time>2026-03-20T13:34:41.107Z</time>
      </trkpt>
      <trkpt lat="53.011175" lon="9.094903">
        <ele>30.308238</ele>
        <time>2026-03-20T13:34:46.329Z</time>
      </trkpt>
      <trkpt lat="53.011073" lon="9.094942">
        <ele>30.136069</ele>
        <time>2026-03-20T13:34:48.027Z</time>
      </trkpt>
      <trkpt lat="53.011013" lon="9.095028">
        <ele>30.005740</ele>
        <time>2026-03-20T13:34:49.329Z</time>
      </trkpt>
      <trkpt lat="53.009649" lon="9.103066">
        <ele>22.287679</ele>
        <time>2026-03-20T13:36:21.677Z</time>
      </trkpt>
      <trkpt lat="53.009222" lon="9.106017">
        <ele>21.497188</ele>
        <time>2026-03-20T13:36:59.667Z</time>
      </trkpt>
      <trkpt lat="53.009065" lon="9.106983">
        <ele>21.801412</ele>
        <time>2026-03-20T13:37:18.167Z</time>
      </trkpt>
      <trkpt lat="53.008964" lon="9.107457">
        <ele>21.986806</ele>
        <time>2026-03-20T13:37:27.766Z</time>
      </trkpt>
      <trkpt lat="53.008658" lon="9.108303">
        <ele>22.350741</ele>
        <time>2026-03-20T13:37:47.097Z</time>
      </trkpt>
      <trkpt lat="53.007649" lon="9.111005">
        <ele>24.325902</ele>
        <time>2026-03-20T13:38:50.813Z</time>
      </trkpt>
      <trkpt lat="53.007101" lon="9.112502">
        <ele>25.349271</ele>
        <time>2026-03-20T13:39:28.857Z</time>
      </trkpt>
      <trkpt lat="53.006831" lon="9.113237">
        <ele>25.826344</ele>
        <time>2026-03-20T13:39:46.070Z</time>
      </trkpt>
      <trkpt lat="53.006410" lon="9.114359">
        <ele>26.018563</ele>
        <time>2026-03-20T13:40:09.217Z</time>
      </trkpt>
      <trkpt lat="53.006288" lon="9.114686">
        <ele>25.840091</ele>
        <time>2026-03-20T13:40:15.399Z</time>
      </trkpt>
      <trkpt lat="53.005439" lon="9.116964">
        <ele>24.375034</ele>
        <time>2026-03-20T13:40:57.423Z</time>
      </trkpt>
      <trkpt lat="53.005422" lon="9.116984">
        <ele>24.346292</ele>
        <time>2026-03-20T13:40:57.822Z</time>
      </trkpt>
      <trkpt lat="53.005345" lon="9.117003">
        <ele>24.238870</ele>
        <time>2026-03-20T13:40:59.294Z</time>
      </trkpt>
      <trkpt lat="53.005082" lon="9.116965">
        <ele>23.874572</ele>
        <time>2026-03-20T13:41:04.241Z</time>
      </trkpt>
      <trkpt lat="53.003943" lon="9.116737">
        <ele>22.271245</ele>
        <time>2026-03-20T13:41:25.127Z</time>
      </trkpt>
      <trkpt lat="53.003839" lon="9.116792">
        <ele>22.091609</ele>
        <time>2026-03-20T13:41:27.077Z</time>
      </trkpt>
      <trkpt lat="53.003781" lon="9.116710">
        <ele>21.966271</ele>
        <time>2026-03-20T13:41:28.624Z</time>
      </trkpt>
      <trkpt lat="53.003736" lon="9.116696">
        <ele>21.890917</ele>
        <time>2026-03-20T13:41:29.559Z</time>
      </trkpt>
      <trkpt lat="53.001574" lon="9.116282">
        <ele>18.571979</ele>
        <time>2026-03-20T13:42:14.084Z</time>
      </trkpt>
      <trkpt lat="53.001374" lon="9.116156">
        <ele>18.302125</ele>
        <time>2026-03-20T13:42:21.051Z</time>
      </trkpt>
      <trkpt lat="53.001270" lon="9.116169">
        <ele>18.170544</ele>
        <time>2026-03-20T13:42:24.480Z</time>
      </trkpt>
      <trkpt lat="53.000391" lon="9.116015">
        <ele>17.129204</ele>
        <time>2026-03-20T13:42:41.424Z</time>
      </trkpt>
      <trkpt lat="52.999754" lon="9.115894">
        <ele>16.857447</ele>
        <time>2026-03-20T13:42:54.473Z</time>
      </trkpt>
      <trkpt lat="52.999623" lon="9.115873">
        <ele>16.801663</ele>
        <time>2026-03-20T13:42:57.301Z</time>
      </trkpt>
      <trkpt lat="52.999324" lon="9.115815">
        <ele>16.674069</ele>
        <time>2026-03-20T13:43:03.828Z</time>
      </trkpt>
      <trkpt lat="52.999117" lon="9.115775">
        <ele>16.585738</ele>
        <time>2026-03-20T13:43:08.390Z</time>
      </trkpt>
      <trkpt lat="52.998903" lon="9.115733">
        <ele>16.494402</ele>
        <time>2026-03-20T13:43:13.047Z</time>
      </trkpt>
      <trkpt lat="52.998852" lon="9.115723">
        <ele>16.472635</ele>
        <time>2026-03-20T13:43:14.135Z</time>
      </trkpt>
      <trkpt lat="52.998505" lon="9.115915">
        <ele>16.338479</ele>
        <time>2026-03-20T13:43:21.983Z</time>
      </trkpt>
      <trkpt lat="52.996871" lon="9.117007">
        <ele>15.794993</ele>
        <time>2026-03-20T13:43:58.857Z</time>
      </trkpt>
      <trkpt lat="52.996244" lon="9.117413">
        <ele>15.671597</ele>
        <time>2026-03-20T13:44:13.875Z</time>
      </trkpt>
      <trkpt lat="52.995937" lon="9.117030">
        <ele>15.601200</ele>
        <time>2026-03-20T13:44:22.324Z</time>
      </trkpt>
      <trkpt lat="52.995654" lon="9.116682">
        <ele>15.536639</ele>
        <time>2026-03-20T13:44:30.173Z</time>
      </trkpt>
      <trkpt lat="52.995117" lon="9.116066">
        <ele>15.012391</ele>
        <time>2026-03-20T13:44:43.493Z</time>
      </trkpt>
      <trkpt lat="52.995046" lon="9.115960">
        <ele>14.904991</ele>
        <time>2026-03-20T13:44:45.362Z</time>
      </trkpt>
      <trkpt lat="52.994819" lon="9.115802">
        <ele>14.628075</ele>
        <time>2026-03-20T13:44:50.060Z</time>
      </trkpt>
      <trkpt lat="52.994244" lon="9.115534">
        <ele>13.956138</ele>
        <time>2026-03-20T13:45:01.114Z</time>
      </trkpt>
      <trkpt lat="52.994089" lon="9.115464">
        <ele>13.775411</ele>
        <time>2026-03-20T13:45:04.017Z</time>
      </trkpt>
      <trkpt lat="52.993963" lon="9.115323">
        <ele>13.604483</ele>
        <time>2026-03-20T13:45:06.738Z</time>
      </trkpt>
      <trkpt lat="52.993845" lon="9.115021">
        <ele>13.376578</ele>
        <time>2026-03-20T13:45:10.626Z</time>
      </trkpt>
      <trkpt lat="52.993739" lon="9.114595">
        <ele>13.109059</ele>
        <time>2026-03-20T13:45:15.678Z</time>
      </trkpt>
      <trkpt lat="52.993637" lon="9.114233">
        <ele>12.877095</ele>
        <time>2026-03-20T13:45:20.179Z</time>
      </trkpt>
      <trkpt lat="52.993550" lon="9.114041">
        <ele>12.737623</ele>
        <time>2026-03-20T13:45:22.956Z</time>
      </trkpt>
      <trkpt lat="52.993431" lon="9.113746">
        <ele>12.531529</ele>
        <time>2026-03-20T13:45:27.152Z</time>
      </trkpt>
      <trkpt lat="52.993346" lon="9.113234">
        <ele>12.223296</ele>
        <time>2026-03-20T13:45:33.675Z</time>
      </trkpt>
      <trkpt lat="52.993410" lon="9.112697">
        <ele>11.905598</ele>
        <time>2026-03-20T13:45:40.351Z</time>
      </trkpt>
      <trkpt lat="52.993405" lon="9.112454">
        <ele>11.764491</ele>
        <time>2026-03-20T13:45:43.369Z</time>
      </trkpt>
      <trkpt lat="52.993354" lon="9.112194">
        <ele>11.620105</ele>
        <time>2026-03-20T13:45:46.798Z</time>
      </trkpt>
      <trkpt lat="52.993754" lon="9.112277">
        <ele>11.273585</ele>
        <time>2026-03-20T13:45:57.951Z</time>
      </trkpt>
      <trkpt lat="52.993774" lon="9.112248">
        <ele>11.250766</ele>
        <time>2026-03-20T13:45:58.670Z</time>
      </trkpt>
      <trkpt lat="52.993801" lon="9.112210">
        <ele>11.220348</ele>
        <time>2026-03-20T13:45:59.590Z</time>
      </trkpt>
      <trkpt lat="52.993856" lon="9.111732">
        <ele>10.968548</ele>
        <time>2026-03-20T13:46:07.376Z</time>
      </trkpt>
      <trkpt lat="52.994022" lon="9.110307">
        <ele>10.217563</ele>
        <time>2026-03-20T13:46:29.996Z</time>
      </trkpt>
      <trkpt lat="52.993962" lon="9.109045">
        <ele>9.662750</ele>
        <time>2026-03-20T13:46:44.577Z</time>
      </trkpt>
      <trkpt lat="52.994077" lon="9.108538">
        <ele>9.427063</ele>
        <time>2026-03-20T13:46:51.110Z</time>
      </trkpt>
      <trkpt lat="52.994923" lon="9.106137">
        <ele>8.632304</ele>
        <time>2026-03-20T13:47:25.831Z</time>
      </trkpt>
      <trkpt lat="52.996331" lon="9.102905">
        <ele>8.216181</ele>
        <time>2026-03-20T13:48:18.413Z</time>
      </trkpt>
      <trkpt lat="52.996564" lon="9.098459">
        <ele>8.085511</ele>
        <time>2026-03-20T13:49:17.198Z</time>
      </trkpt>
      <trkpt lat="52.996570" lon="9.094577">
        <ele>8.453466</ele>
        <time>2026-03-20T13:50:10.365Z</time>
      </trkpt>
      <trkpt lat="52.996661" lon="9.093673">
        <ele>8.597086</ele>
        <time>2026-03-20T13:50:27.972Z</time>
      </trkpt>
      <trkpt lat="52.996695" lon="9.093413">
        <ele>8.622200</ele>
        <time>2026-03-20T13:50:33.039Z</time>
      </trkpt>
      <trkpt lat="52.997488" lon="9.090110">
        <ele>8.634628</ele>
        <time>2026-03-20T13:51:35.279Z</time>
      </trkpt>
      <trkpt lat="52.997542" lon="9.089309">
        <ele>8.563418</ele>
        <time>2026-03-20T13:51:48.851Z</time>
      </trkpt>
      <trkpt lat="52.997268" lon="9.087468">
        <ele>8.442805</ele>
        <time>2026-03-20T13:52:21.798Z</time>
      </trkpt>
      <trkpt lat="52.997312" lon="9.086876">
        <ele>8.458697</ele>
        <time>2026-03-20T13:52:32.184Z</time>
      </trkpt>
      <trkpt lat="52.997271" lon="9.086422">
        <ele>8.470928</ele>
        <time>2026-03-20T13:52:40.281Z</time>
      </trkpt>
      <trkpt lat="52.997230" lon="9.085986">
        <ele>8.482684</ele>
        <time>2026-03-20T13:52:48.199Z</time>
      </trkpt>
      <trkpt lat="52.997102" lon="9.085133">
        <ele>8.506106</ele>
        <time>2026-03-20T13:53:08.373Z</time>
      </trkpt>
      <trkpt lat="52.996995" lon="9.083927">
        <ele>8.560022</ele>
        <time>2026-03-20T13:53:35.934Z</time>
      </trkpt>
      <trkpt lat="52.996823" lon="9.082885">
        <ele>8.611637</ele>
        <time>2026-03-20T13:54:00.451Z</time>
      </trkpt>
      <trkpt lat="52.996053" lon="9.080880">
        <ele>9.105950</ele>
        <time>2026-03-20T13:54:52.810Z</time>
      </trkpt>
      <trkpt lat="52.995976" lon="9.080372">
        <ele>9.265267</ele>
        <time>2026-03-20T13:55:05.290Z</time>
      </trkpt>
      <trkpt lat="52.996026" lon="9.080203">
        <ele>9.322537</ele>
        <time>2026-03-20T13:55:10.034Z</time>
      </trkpt>
      <trkpt lat="52.996235" lon="9.079740">
        <ele>9.498546</ele>
        <time>2026-03-20T13:55:24.894Z</time>
      </trkpt>
      <trkpt lat="52.996350" lon="9.079386">
        <ele>9.613043</ele>
        <time>2026-03-20T13:55:35.207Z</time>
      </trkpt>
      <trkpt lat="52.996523" lon="9.078909">
        <ele>9.759406</ele>
        <time>2026-03-20T13:55:44.483Z</time>
      </trkpt>
      <trkpt lat="52.996792" lon="9.078655">
        <ele>9.894512</ele>
        <time>2026-03-20T13:55:52.816Z</time>
      </trkpt>
      <trkpt lat="52.996892" lon="9.078423">
        <ele>9.969507</ele>
        <time>2026-03-20T13:55:57.254Z</time>
      </trkpt>
      <trkpt lat="52.997079" lon="9.077453">
        <ele>10.237190</ele>
        <time>2026-03-20T13:56:11.670Z</time>
      </trkpt>
      <trkpt lat="52.996936" lon="9.075309">
        <ele>9.146365</ele>
        <time>2026-03-20T13:56:35.752Z</time>
      </trkpt>
      <trkpt lat="52.996920" lon="9.075056">
        <ele>8.969932</ele>
        <time>2026-03-20T13:56:38.552Z</time>
      </trkpt>
      <trkpt lat="52.996806" lon="9.073207">
        <ele>8.375436</ele>
        <time>2026-03-20T13:57:00.078Z</time>
      </trkpt>
      <trkpt lat="52.996774" lon="9.072294">
        <ele>8.481536</ele>
        <time>2026-03-20T13:57:12.623Z</time>
      </trkpt>
      <trkpt lat="52.996755" lon="9.071229">
        <ele>8.605145</ele>
        <time>2026-03-20T13:57:28.659Z</time>
      </trkpt>
      <trkpt lat="52.996746" lon="9.070719">
        <ele>8.963431</ele>
        <time>2026-03-20T13:57:37.202Z</time>
      </trkpt>
      <trkpt lat="52.996743" lon="9.070223">
        <ele>9.433388</ele>
        <time>2026-03-20T13:57:46.725Z</time>
      </trkpt>
      <trkpt lat="52.996738" lon="9.069474">
        <ele>10.143069</ele>
        <time>2026-03-20T13:58:01.649Z</time>
      </trkpt>
      <trkpt lat="52.996743" lon="9.068844">
        <ele>10.740013</ele>
        <time>2026-03-20T13:58:13.002Z</time>
      </trkpt>
      <trkpt lat="52.996792" lon="9.068264">
        <ele>11.294919</ele>
        <time>2026-03-20T13:58:22.857Z</time>
      </trkpt>
      <trkpt lat="52.997101" lon="9.065677">
        <ele>11.211026</ele>
        <time>2026-03-20T13:58:56.715Z</time>
      </trkpt>
      <trkpt lat="52.997126" lon="9.065408">
        <ele>11.184243</ele>
        <time>2026-03-20T13:58:59.864Z</time>
      </trkpt>
      <trkpt lat="52.997111" lon="9.065238">
        <ele>11.167337</ele>
        <time>2026-03-20T13:59:01.863Z</time>
      </trkpt>
      <trkpt lat="52.997155" lon="9.064841">
        <ele>11.139336</ele>
        <time>2026-03-20T13:59:06.707Z</time>
      </trkpt>
      <trkpt lat="52.997162" lon="9.064510">
        <ele>11.118554</ele>
        <time>2026-03-20T13:59:10.755Z</time>
      </trkpt>
      <trkpt lat="52.997198" lon="9.064190">
        <ele>11.098128</ele>
        <time>2026-03-20T13:59:14.868Z</time>
      </trkpt>
      <trkpt lat="52.997372" lon="9.064101">
        <ele>11.079148</ele>
        <time>2026-03-20T13:59:18.924Z</time>
      </trkpt>
      <trkpt lat="52.997655" lon="9.062715">
        <ele>10.987316</ele>
        <time>2026-03-20T13:59:41.797Z</time>
      </trkpt>
      <trkpt lat="52.997732" lon="9.062437">
        <ele>10.959131</ele>
        <time>2026-03-20T13:59:46.377Z</time>
      </trkpt>
      <trkpt lat="52.997805" lon="9.062347">
        <ele>10.930008</ele>
        <time>2026-03-20T13:59:48.687Z</time>
      </trkpt>
      <trkpt lat="52.997806" lon="9.062309">
        <ele>10.922674</ele>
        <time>2026-03-20T13:59:49.134Z</time>
      </trkpt>
      <trkpt lat="52.997863" lon="9.059522">
        <ele>10.394322</ele>
        <time>2026-03-20T14:00:23.906Z</time>
      </trkpt>
      <trkpt lat="52.997807" lon="9.058789">
        <ele>10.370539</ele>
        <time>2026-03-20T14:00:33.488Z</time>
      </trkpt>
      <trkpt lat="52.997738" lon="9.058379">
        <ele>10.356836</ele>
        <time>2026-03-20T14:00:39.236Z</time>
      </trkpt>
      <trkpt lat="52.997725" lon="9.058301">
        <ele>10.354231</ele>
        <time>2026-03-20T14:00:40.287Z</time>
      </trkpt>
      <trkpt lat="52.997546" lon="9.054333">
        <ele>10.116735</ele>
        <time>2026-03-20T14:01:39.468Z</time>
      </trkpt>
      <trkpt lat="52.997567" lon="9.052321">
        <ele>9.473013</ele>
        <time>2026-03-20T14:02:07.537Z</time>
      </trkpt>
      <trkpt lat="52.997550" lon="9.052234">
        <ele>9.432189</ele>
        <time>2026-03-20T14:02:08.753Z</time>
      </trkpt>
      <trkpt lat="52.997503" lon="9.052191">
        <ele>9.392402</ele>
        <time>2026-03-20T14:02:09.934Z</time>
      </trkpt>
      <trkpt lat="52.996897" lon="9.052170">
        <ele>8.942925</ele>
        <time>2026-03-20T14:02:22.887Z</time>
      </trkpt>
      <trkpt lat="52.996779" lon="9.052109">
        <ele>8.851285</ele>
        <time>2026-03-20T14:02:25.571Z</time>
      </trkpt>
      <trkpt lat="52.996678" lon="9.051989">
        <ele>8.759209</ele>
        <time>2026-03-20T14:02:28.281Z</time>
      </trkpt>
      <trkpt lat="52.996599" lon="9.051591">
        <ele>8.816029</ele>
        <time>2026-03-20T14:02:33.778Z</time>
      </trkpt>
      <trkpt lat="52.996608" lon="9.051430">
        <ele>8.857159</ele>
        <time>2026-03-20T14:02:35.891Z</time>
      </trkpt>
      <trkpt lat="52.996519" lon="9.051473">
        <ele>8.896332</ele>
        <time>2026-03-20T14:02:39.088Z</time>
      </trkpt>
      <trkpt lat="52.996432" lon="9.051516">
        <ele>8.934693</ele>
        <time>2026-03-20T14:02:42.286Z</time>
      </trkpt>
      <trkpt lat="52.996519" lon="9.051473">
        <ele>8.973055</ele>
        <time>2026-03-20T14:02:45.548Z</time>
      </trkpt>
      <trkpt lat="52.996608" lon="9.051430">
        <ele>9.012228</ele>
        <time>2026-03-20T14:02:48.956Z</time>
      </trkpt>
      <trkpt lat="52.996736" lon="9.051349">
        <ele>9.070117</ele>
        <time>2026-03-20T14:02:52.166Z</time>
      </trkpt>
      <trkpt lat="52.996786" lon="9.051317">
        <ele>9.092762</ele>
        <time>2026-03-20T14:02:53.461Z</time>
      </trkpt>
      <trkpt lat="52.997080" lon="9.051130">
        <ele>9.225812</ele>
        <time>2026-03-20T14:03:01.677Z</time>
      </trkpt>
      <trkpt lat="52.997218" lon="9.050979">
        <ele>9.295647</ele>
        <time>2026-03-20T14:03:06.283Z</time>
      </trkpt>
      <trkpt lat="52.997359" lon="9.050649">
        <ele>9.398590</ele>
        <time>2026-03-20T14:03:13.240Z</time>
      </trkpt>
      <trkpt lat="52.997570" lon="9.049993">
        <ele>10.007233</ele>
        <time>2026-03-20T14:03:25.396Z</time>
      </trkpt>
      <trkpt lat="52.997701" lon="9.049557">
        <ele>10.650521</ele>
        <time>2026-03-20T14:03:33.361Z</time>
      </trkpt>
      <trkpt lat="52.997963" lon="9.048716">
        <ele>11.900612</ele>
        <time>2026-03-20T14:03:51.507Z</time>
      </trkpt>
      <trkpt lat="52.998038" lon="9.048569">
        <ele>12.155005</ele>
        <time>2026-03-20T14:03:55.318Z</time>
      </trkpt>
      <trkpt lat="52.998176" lon="9.048401">
        <ele>12.530238</ele>
        <time>2026-03-20T14:04:00.923Z</time>
      </trkpt>
      <trkpt lat="52.998340" lon="9.048324">
        <ele>12.904035</ele>
        <time>2026-03-20T14:04:06.733Z</time>
      </trkpt>
      <trkpt lat="52.998473" lon="9.048326">
        <ele>13.195765</ele>
        <time>2026-03-20T14:04:11.088Z</time>
      </trkpt>
      <trkpt lat="52.998609" lon="9.048355">
        <ele>13.514152</ele>
        <time>2026-03-20T14:04:15.599Z</time>
      </trkpt>
      <trkpt lat="52.998865" lon="9.048520">
        <ele>14.283092</ele>
        <time>2026-03-20T14:04:24.807Z</time>
      </trkpt>
      <trkpt lat="52.999068" lon="9.048800">
        <ele>15.021908</ele>
        <time>2026-03-20T14:04:33.906Z</time>
      </trkpt>
      <trkpt lat="52.999226" lon="9.049162">
        <ele>15.775554</ele>
        <time>2026-03-20T14:04:43.628Z</time>
      </trkpt>
      <trkpt lat="52.999364" lon="9.048012">
        <ele>17.751838</ele>
        <time>2026-03-20T14:05:13.218Z</time>
      </trkpt>
      <trkpt lat="52.999437" lon="9.047733">
        <ele>18.264561</ele>
        <time>2026-03-20T14:05:20.479Z</time>
      </trkpt>
      <trkpt lat="52.999573" lon="9.047505">
        <ele>18.415406</ele>
        <time>2026-03-20T14:05:27.602Z</time>
      </trkpt>
      <trkpt lat="52.999775" lon="9.047523">
        <ele>18.323984</ele>
        <time>2026-03-20T14:05:34.689Z</time>
      </trkpt>
      <trkpt lat="52.999987" lon="9.047542">
        <ele>18.228035</ele>
        <time>2026-03-20T14:05:41.648Z</time>
      </trkpt>
      <trkpt lat="53.000372" lon="9.047463">
        <ele>18.052718</ele>
        <time>2026-03-20T14:05:53.421Z</time>
      </trkpt>
      <trkpt lat="53.000313" lon="9.046726">
        <ele>17.850504</ele>
        <time>2026-03-20T14:06:05.296Z</time>
      </trkpt>
      <trkpt lat="53.000051" lon="9.045917">
        <ele>17.240170</ele>
        <time>2026-03-20T14:06:17.902Z</time>
      </trkpt>
      <trkpt lat="52.999921" lon="9.044868">
        <ele>15.077803</ele>
        <time>2026-03-20T14:06:31.642Z</time>
      </trkpt>
      <trkpt lat="52.999927" lon="9.044196">
        <ele>13.720885</ele>
        <time>2026-03-20T14:06:40.386Z</time>
      </trkpt>
      <trkpt lat="53.000060" lon="9.043594">
        <ele>12.426135</ele>
        <time>2026-03-20T14:06:49.048Z</time>
      </trkpt>
      <trkpt lat="53.000194" lon="9.043273">
        <ele>11.637387</ele>
        <time>2026-03-20T14:06:54.486Z</time>
      </trkpt>
      <trkpt lat="53.000563" lon="9.042379">
        <ele>10.886428</ele>
        <time>2026-03-20T14:07:10.302Z</time>
      </trkpt>
      <trkpt lat="53.000867" lon="9.041657">
        <ele>10.283983</ele>
        <time>2026-03-20T14:07:24.467Z</time>
      </trkpt>
      <trkpt lat="53.001164" lon="9.040852">
        <ele>9.638422</ele>
        <time>2026-03-20T14:07:40.306Z</time>
      </trkpt>
      <trkpt lat="53.001277" lon="9.040547">
        <ele>9.586120</ele>
        <time>2026-03-20T14:07:46.579Z</time>
      </trkpt>
      <trkpt lat="53.001630" lon="9.039590">
        <ele>9.614692</ele>
        <time>2026-03-20T14:08:06.475Z</time>
      </trkpt>
      <trkpt lat="53.001805" lon="9.039059">
        <ele>9.630103</ele>
        <time>2026-03-20T14:08:17.399Z</time>
      </trkpt>
      <trkpt lat="53.001992" lon="9.038449">
        <ele>9.647530</ele>
        <time>2026-03-20T14:08:29.580Z</time>
      </trkpt>
      <trkpt lat="53.002362" lon="9.037580">
        <ele>9.701013</ele>
        <time>2026-03-20T14:08:48.864Z</time>
      </trkpt>
      <trkpt lat="53.002455" lon="9.037350">
        <ele>9.717690</ele>
        <time>2026-03-20T14:08:52.588Z</time>
      </trkpt>
      <trkpt lat="53.002752" lon="9.036936">
        <ele>9.756461</ele>
        <time>2026-03-20T14:09:01.351Z</time>
      </trkpt>
      <trkpt lat="53.003335" lon="9.036316">
        <ele>9.825686</ele>
        <time>2026-03-20T14:09:17.065Z</time>
      </trkpt>
      <trkpt lat="53.004001" lon="9.035511">
        <ele>9.729598</ele>
        <time>2026-03-20T14:09:34.999Z</time>
      </trkpt>
      <trkpt lat="53.004080" lon="9.035436">
        <ele>9.716415</ele>
        <time>2026-03-20T14:09:37.570Z</time>
      </trkpt>
      <trkpt lat="53.004143" lon="9.035453">
        <ele>9.707167</ele>
        <time>2026-03-20T14:09:39.414Z</time>
      </trkpt>
      <trkpt lat="53.004239" lon="9.035291">
        <ele>9.687343</ele>
        <time>2026-03-20T14:09:43.283Z</time>
      </trkpt>
      <trkpt lat="53.004325" lon="9.035215">
        <ele>9.673230</ele>
        <time>2026-03-20T14:09:46.001Z</time>
      </trkpt>
      <trkpt lat="53.004899" lon="9.034708">
        <ele>9.579044</ele>
        <time>2026-03-20T14:10:04.423Z</time>
      </trkpt>
      <trkpt lat="53.005442" lon="9.034164">
        <ele>9.939525</ele>
        <time>2026-03-20T14:10:23.066Z</time>
      </trkpt>
      <trkpt lat="53.006141" lon="9.033325">
        <ele>10.461288</ele>
        <time>2026-03-20T14:10:50.318Z</time>
      </trkpt>
      <trkpt lat="53.006289" lon="9.033187">
        <ele>10.563978</ele>
        <time>2026-03-20T14:10:55.971Z</time>
      </trkpt>
      <trkpt lat="53.006679" lon="9.033076">
        <ele>11.169124</ele>
        <time>2026-03-20T14:11:10.108Z</time>
      </trkpt>
      <trkpt lat="53.007245" lon="9.032854">
        <ele>12.437297</ele>
        <time>2026-03-20T14:11:32.537Z</time>
      </trkpt>
      <trkpt lat="53.008022" lon="9.032608">
        <ele>14.162157</ele>
        <time>2026-03-20T14:12:04.041Z</time>
      </trkpt>
      <trkpt lat="53.008051" lon="9.032599">
        <ele>14.226489</ele>
        <time>2026-03-20T14:12:05.188Z</time>
      </trkpt>
      <trkpt lat="53.008117" lon="9.032599">
        <ele>14.370414</ele>
        <time>2026-03-20T14:12:07.253Z</time>
      </trkpt>
      <trkpt lat="53.008497" lon="9.032605">
        <ele>14.942873</ele>
        <time>2026-03-20T14:12:18.919Z</time>
      </trkpt>
      <trkpt lat="53.008653" lon="9.032601">
        <ele>15.141090</ele>
        <time>2026-03-20T14:12:23.554Z</time>
      </trkpt>
      <trkpt lat="53.008992" lon="9.032696">
        <ele>15.577859</ele>
        <time>2026-03-20T14:12:33.386Z</time>
      </trkpt>
      <trkpt lat="53.009155" lon="9.032279">
        <ele>15.957987</ele>
        <time>2026-03-20T14:12:41.493Z</time>
      </trkpt>
      <trkpt lat="53.009234" lon="9.032202">
        <ele>16.074341</ele>
        <time>2026-03-20T14:12:43.919Z</time>
      </trkpt>
      <trkpt lat="53.009323" lon="9.032167">
        <ele>16.190535</ele>
        <time>2026-03-20T14:12:46.331Z</time>
      </trkpt>
      <trkpt lat="53.009705" lon="9.032157">
        <ele>16.675915</ele>
        <time>2026-03-20T14:12:56.120Z</time>
      </trkpt>
      <trkpt lat="53.009993" lon="9.032167">
        <ele>16.747830</ele>
        <time>2026-03-20T14:13:02.838Z</time>
      </trkpt>
      <trkpt lat="53.010129" lon="9.032116">
        <ele>16.621337</ele>
        <time>2026-03-20T14:13:05.895Z</time>
      </trkpt>
      <trkpt lat="53.010835" lon="9.031854">
        <ele>15.965014</ele>
        <time>2026-03-20T14:13:20.884Z</time>
      </trkpt>
      <trkpt lat="53.010905" lon="9.030992">
        <ele>15.490194</ele>
        <time>2026-03-20T14:13:30.390Z</time>
      </trkpt>
      <trkpt lat="53.010866" lon="9.030643">
        <ele>15.296422</ele>
        <time>2026-03-20T14:13:34.112Z</time>
      </trkpt>
      <trkpt lat="53.010699" lon="9.030183">
        <ele>14.767996</ele>
        <time>2026-03-20T14:13:39.651Z</time>
      </trkpt>
      <trkpt lat="53.010886" lon="9.029510">
        <ele>13.958927</ele>
        <time>2026-03-20T14:13:47.712Z</time>
      </trkpt>
      <trkpt lat="53.011255" lon="9.028793">
        <ele>12.929163</ele>
        <time>2026-03-20T14:13:58.459Z</time>
      </trkpt>
      <trkpt lat="53.011658" lon="9.027458">
        <ele>11.444660</ele>
        <time>2026-03-20T14:14:15.668Z</time>
      </trkpt>
      <trkpt lat="53.011775" lon="9.027010">
        <ele>11.026348</ele>
        <time>2026-03-20T14:14:21.315Z</time>
      </trkpt>
      <trkpt lat="53.011565" lon="9.026687">
        <ele>10.619021</ele>
        <time>2026-03-20T14:14:26.607Z</time>
      </trkpt>
      <trkpt lat="53.011455" lon="9.026451">
        <ele>10.363320</ele>
        <time>2026-03-20T14:14:29.891Z</time>
      </trkpt>
      <trkpt lat="53.011430" lon="9.026294">
        <ele>10.224215</ele>
        <time>2026-03-20T14:14:31.676Z</time>
      </trkpt>
      <trkpt lat="53.011432" lon="9.025945">
        <ele>9.925274</ele>
        <time>2026-03-20T14:14:35.494Z</time>
      </trkpt>
      <trkpt lat="53.011490" lon="9.025162">
        <ele>9.385734</ele>
        <time>2026-03-20T14:14:44.151Z</time>
      </trkpt>
      <trkpt lat="53.011552" lon="9.023894">
        <ele>9.192211</ele>
        <time>2026-03-20T14:15:00.401Z</time>
      </trkpt>
      <trkpt lat="53.011604" lon="9.023136">
        <ele>9.076157</ele>
        <time>2026-03-20T14:15:10.918Z</time>
      </trkpt>
      <trkpt lat="53.011601" lon="9.022800">
        <ele>9.025039</ele>
        <time>2026-03-20T14:15:15.566Z</time>
      </trkpt>
      <trkpt lat="53.011560" lon="9.022417">
        <ele>8.965863</ele>
        <time>2026-03-20T14:15:20.961Z</time>
      </trkpt>
      <trkpt lat="53.011492" lon="9.022058">
        <ele>8.943584</ele>
        <time>2026-03-20T14:15:26.281Z</time>
      </trkpt>
      <trkpt lat="53.011197" lon="9.020598">
        <ele>8.867568</ele>
        <time>2026-03-20T14:15:47.024Z</time>
      </trkpt>
      <trkpt lat="53.011177" lon="9.020528">
        <ele>8.863743</ele>
        <time>2026-03-20T14:15:48.029Z</time>
      </trkpt>
      <trkpt lat="53.011064" lon="9.019960">
        <ele>8.834216</ele>
        <time>2026-03-20T14:15:55.588Z</time>
      </trkpt>
      <trkpt lat="53.010941" lon="9.019402">
        <ele>8.788503</ele>
        <time>2026-03-20T14:16:03.053Z</time>
      </trkpt>
      <trkpt lat="53.010411" lon="9.017020">
        <ele>8.404759</ele>
        <time>2026-03-20T14:16:34.750Z</time>
      </trkpt>
      <trkpt lat="53.010255" lon="9.016331">
        <ele>8.636303</ele>
        <time>2026-03-20T14:16:45.137Z</time>
      </trkpt>
      <trkpt lat="53.010174" lon="9.015955">
        <ele>8.881938</ele>
        <time>2026-03-20T14:16:51.196Z</time>
      </trkpt>
      <trkpt lat="53.010125" lon="9.015302">
        <ele>9.286679</ele>
        <time>2026-03-20T14:17:02.242Z</time>
      </trkpt>
      <trkpt lat="53.010516" lon="9.013697">
        <ele>10.296042</ele>
        <time>2026-03-20T14:17:32.806Z</time>
      </trkpt>
      <trkpt lat="53.010755" lon="9.012714">
        <ele>10.709303</ele>
        <time>2026-03-20T14:17:50.218Z</time>
      </trkpt>
      <trkpt lat="53.010783" lon="9.012651">
        <ele>10.739833</ele>
        <time>2026-03-20T14:17:51.418Z</time>
      </trkpt>
      <trkpt lat="53.010801" lon="9.012612">
        <ele>10.758992</ele>
        <time>2026-03-20T14:17:52.143Z</time>
      </trkpt>
      <trkpt lat="53.010865" lon="9.012590">
        <ele>10.801332</ele>
        <time>2026-03-20T14:17:53.745Z</time>
      </trkpt>
      <trkpt lat="53.010769" lon="9.011727">
        <ele>11.143417</ele>
        <time>2026-03-20T14:18:07.319Z</time>
      </trkpt>
      <trkpt lat="53.010881" lon="9.010714">
        <ele>11.311789</ele>
        <time>2026-03-20T14:18:22.732Z</time>
      </trkpt>
      <trkpt lat="53.011536" lon="9.009098">
        <ele>11.087107</ele>
        <time>2026-03-20T14:18:56.393Z</time>
      </trkpt>
      <trkpt lat="53.011612" lon="9.008632">
        <ele>11.031433</ele>
        <time>2026-03-20T14:19:04.425Z</time>
      </trkpt>
      <trkpt lat="53.011594" lon="9.008367">
        <ele>10.958852</ele>
        <time>2026-03-20T14:19:07.705Z</time>
      </trkpt>
      <trkpt lat="53.011592" lon="9.008335">
        <ele>10.947226</ele>
        <time>2026-03-20T14:19:08.085Z</time>
      </trkpt>
      <trkpt lat="53.011545" lon="9.007641">
        <ele>10.694850</ele>
        <time>2026-03-20T14:19:16.682Z</time>
      </trkpt>
      <trkpt lat="53.011506" lon="9.007079">
        <ele>10.490411</ele>
        <time>2026-03-20T14:19:23.572Z</time>
      </trkpt>
      <trkpt lat="53.011488" lon="9.006697">
        <ele>10.351944</ele>
        <time>2026-03-20T14:19:28.168Z</time>
      </trkpt>
      <trkpt lat="53.011411" lon="9.005361">
        <ele>9.832027</ele>
        <time>2026-03-20T14:19:44.450Z</time>
      </trkpt>
      <trkpt lat="53.011340" lon="9.003994">
        <ele>9.099138</ele>
        <time>2026-03-20T14:20:00.688Z</time>
      </trkpt>
      <trkpt lat="53.011337" lon="9.003832">
        <ele>9.012566</ele>
        <time>2026-03-20T14:20:02.565Z</time>
      </trkpt>
      <trkpt lat="53.011332" lon="9.003738">
        <ele>8.962161</ele>
        <time>2026-03-20T14:20:03.631Z</time>
      </trkpt>
      <trkpt lat="53.011155" lon="9.000599">
        <ele>7.672784</ele>
        <time>2026-03-20T14:20:53.391Z</time>
      </trkpt>
      <trkpt lat="53.011026" lon="8.998838">
        <ele>7.395531</ele>
        <time>2026-03-20T14:21:25.148Z</time>
      </trkpt>
      <trkpt lat="53.010710" lon="8.996440">
        <ele>7.563409</ele>
        <time>2026-03-20T14:22:09.294Z</time>
      </trkpt>
      <trkpt lat="53.010739" lon="8.995773">
        <ele>7.576011</ele>
        <time>2026-03-20T14:22:21.041Z</time>
      </trkpt>
      <trkpt lat="53.010801" lon="8.994289">
        <ele>7.604042</ele>
        <time>2026-03-20T14:22:47.273Z</time>
      </trkpt>
      <trkpt lat="53.011027" lon="8.993086">
        <ele>7.665935</ele>
        <time>2026-03-20T14:23:09.537Z</time>
      </trkpt>
      <trkpt lat="53.011289" lon="8.991652">
        <ele>7.779377</ele>
        <time>2026-03-20T14:23:36.479Z</time>
      </trkpt>
      <trkpt lat="53.011571" lon="8.990181">
        <ele>7.828275</ele>
        <time>2026-03-20T14:24:04.131Z</time>
      </trkpt>
      <trkpt lat="53.011671" lon="8.989834">
        <ele>7.821279</ele>
        <time>2026-03-20T14:24:10.937Z</time>
      </trkpt>
      <trkpt lat="53.012093" lon="8.989107">
        <ele>7.802912</ele>
        <time>2026-03-20T14:24:28.638Z</time>
      </trkpt>
      <trkpt lat="53.012316" lon="8.988666">
        <ele>7.792438</ele>
        <time>2026-03-20T14:24:38.595Z</time>
      </trkpt>
      <trkpt lat="53.012446" lon="8.988348">
        <ele>7.778590</ele>
        <time>2026-03-20T14:24:45.174Z</time>
      </trkpt>
      <trkpt lat="53.012518" lon="8.988172">
        <ele>7.758496</ele>
        <time>2026-03-20T14:24:48.811Z</time>
      </trkpt>
      <trkpt lat="53.012589" lon="8.987600">
        <ele>7.703354</ele>
        <time>2026-03-20T14:24:58.905Z</time>
      </trkpt>
      <trkpt lat="53.012614" lon="8.986935">
        <ele>7.640448</ele>
        <time>2026-03-20T14:25:10.517Z</time>
      </trkpt>
      <trkpt lat="53.012587" lon="8.986416">
        <ele>7.591265</ele>
        <time>2026-03-20T14:25:19.595Z</time>
      </trkpt>
      <trkpt lat="53.010723" lon="8.983029">
        <ele>7.175265</ele>
        <time>2026-03-20T14:26:18.959Z</time>
      </trkpt>
      <trkpt lat="53.010551" lon="8.982584">
        <ele>7.180127</ele>
        <time>2026-03-20T14:26:25.888Z</time>
      </trkpt>
      <trkpt lat="53.013433" lon="8.975548">
        <ele>7.321507</ele>
        <time>2026-03-20T14:28:21.247Z</time>
      </trkpt>
      <trkpt lat="53.013614" lon="8.975119">
        <ele>7.295206</ele>
        <time>2026-03-20T14:28:28.268Z</time>
      </trkpt>
      <trkpt lat="53.014015" lon="8.974054">
        <ele>7.232143</ele>
        <time>2026-03-20T14:28:44.732Z</time>
      </trkpt>
      <trkpt lat="53.014099" lon="8.973727">
        <ele>7.214296</ele>
        <time>2026-03-20T14:28:49.296Z</time>
      </trkpt>
      <trkpt lat="53.014302" lon="8.972150">
        <ele>6.943759</ele>
        <time>2026-03-20T14:29:09.573Z</time>
      </trkpt>
      <trkpt lat="53.014347" lon="8.971657">
        <ele>6.856388</ele>
        <time>2026-03-20T14:29:15.927Z</time>
      </trkpt>
      <trkpt lat="53.014299" lon="8.971501">
        <ele>6.825686</ele>
        <time>2026-03-20T14:29:18.167Z</time>
      </trkpt>
      <trkpt lat="53.014167" lon="8.971394">
        <ele>6.782914</ele>
        <time>2026-03-20T14:29:21.298Z</time>
      </trkpt>
      <trkpt lat="53.013186" lon="8.970991">
        <ele>6.590973</ele>
        <time>2026-03-20T14:29:43.060Z</time>
      </trkpt>
      <trkpt lat="53.013128" lon="8.970905">
        <ele>6.580098</ele>
        <time>2026-03-20T14:29:44.744Z</time>
      </trkpt>
      <trkpt lat="53.013124" lon="8.970782">
        <ele>6.569729</ele>
        <time>2026-03-20T14:29:46.349Z</time>
      </trkpt>
      <trkpt lat="53.014170" lon="8.966217">
        <ele>6.320605</ele>
        <time>2026-03-20T14:30:50.849Z</time>
      </trkpt>
      <trkpt lat="53.009755" lon="8.964108">
        <ele>6.237199</ele>
        <time>2026-03-20T14:32:32.896Z</time>
      </trkpt>
      <trkpt lat="53.009710" lon="8.964028">
        <ele>6.233651</ele>
        <time>2026-03-20T14:32:34.335Z</time>
      </trkpt>
      <trkpt lat="53.009710" lon="8.963921">
        <ele>6.230185</ele>
        <time>2026-03-20T14:32:35.742Z</time>
      </trkpt>
      <trkpt lat="53.010342" lon="8.961314">
        <ele>6.035042</ele>
        <time>2026-03-20T14:33:12.349Z</time>
      </trkpt>
      <trkpt lat="53.010575" lon="8.960053">
        <ele>5.962220</ele>
        <time>2026-03-20T14:33:29.710Z</time>
      </trkpt>
      <trkpt lat="53.010576" lon="8.959758">
        <ele>5.975113</ele>
        <time>2026-03-20T14:33:33.626Z</time>
      </trkpt>
      <trkpt lat="53.010351" lon="8.957750">
        <ele>6.064385</ele>
        <time>2026-03-20T14:34:02.395Z</time>
      </trkpt>
      <trkpt lat="53.009625" lon="8.950954">
        <ele>7.182012</ele>
        <time>2026-03-20T14:35:39.174Z</time>
      </trkpt>
      <trkpt lat="53.009448" lon="8.949362">
        <ele>7.610973</ele>
        <time>2026-03-20T14:36:02.924Z</time>
      </trkpt>
      <trkpt lat="53.009385" lon="8.948759">
        <ele>7.773136</ele>
        <time>2026-03-20T14:36:11.792Z</time>
      </trkpt>
      <trkpt lat="53.009219" lon="8.947134">
        <ele>8.129362</ele>
        <time>2026-03-20T14:36:35.483Z</time>
      </trkpt>
      <trkpt lat="53.009217" lon="8.946910">
        <ele>8.176431</ele>
        <time>2026-03-20T14:36:38.611Z</time>
      </trkpt>
      <trkpt lat="53.009249" lon="8.946692">
        <ele>8.223576</ele>
        <time>2026-03-20T14:36:41.768Z</time>
      </trkpt>
      <trkpt lat="53.009325" lon="8.946445">
        <ele>8.281864</ele>
        <time>2026-03-20T14:36:45.688Z</time>
      </trkpt>
      <trkpt lat="53.009649" lon="8.945150">
        <ele>8.432077</ele>
        <time>2026-03-20T14:37:05.575Z</time>
      </trkpt>
      <trkpt lat="53.009639" lon="8.944928">
        <ele>8.425817</ele>
        <time>2026-03-20T14:37:08.584Z</time>
      </trkpt>
      <trkpt lat="53.009577" lon="8.944594">
        <ele>8.415987</ele>
        <time>2026-03-20T14:37:13.189Z</time>
      </trkpt>
      <trkpt lat="53.009622" lon="8.944316">
        <ele>8.407891</ele>
        <time>2026-03-20T14:37:16.934Z</time>
      </trkpt>
      <trkpt lat="53.009689" lon="8.944106">
        <ele>8.401206</ele>
        <time>2026-03-20T14:37:20.013Z</time>
      </trkpt>
      <trkpt lat="53.010216" lon="8.943154">
        <ele>8.363617</ele>
        <time>2026-03-20T14:37:36.781Z</time>
      </trkpt>
      <trkpt lat="53.010545" lon="8.942288">
        <ele>8.186935</ele>
        <time>2026-03-20T14:37:49.856Z</time>
      </trkpt>
      <trkpt lat="53.010606" lon="8.942119">
        <ele>8.152937</ele>
        <time>2026-03-20T14:37:52.377Z</time>
      </trkpt>
      <trkpt lat="53.010657" lon="8.942048">
        <ele>8.133862</ele>
        <time>2026-03-20T14:37:53.772Z</time>
      </trkpt>
      <trkpt lat="53.010818" lon="8.942066">
        <ele>8.087596</ele>
        <time>2026-03-20T14:37:57.172Z</time>
      </trkpt>
      <trkpt lat="53.010981" lon="8.942030">
        <ele>8.040450</ele>
        <time>2026-03-20T14:38:00.659Z</time>
      </trkpt>
      <trkpt lat="53.011190" lon="8.941263">
        <ele>7.895200</ele>
        <time>2026-03-20T14:38:11.362Z</time>
      </trkpt>
      <trkpt lat="53.011210" lon="8.941182">
        <ele>7.880096</ele>
        <time>2026-03-20T14:38:12.474Z</time>
      </trkpt>
      <trkpt lat="53.011315" lon="8.940767">
        <ele>7.773187</ele>
        <time>2026-03-20T14:38:18.174Z</time>
      </trkpt>
      <trkpt lat="53.011438" lon="8.940271">
        <ele>7.622959</ele>
        <time>2026-03-20T14:38:24.944Z</time>
      </trkpt>
      <trkpt lat="53.011465" lon="8.939965">
        <ele>7.536355</ele>
        <time>2026-03-20T14:38:28.820Z</time>
      </trkpt>
      <trkpt lat="53.011092" lon="8.937792">
        <ele>6.879931</ele>
        <time>2026-03-20T14:38:56.677Z</time>
      </trkpt>
      <trkpt lat="53.010420" lon="8.933935">
        <ele>5.627267</ele>
        <time>2026-03-20T14:39:47.841Z</time>
      </trkpt>
      <trkpt lat="53.010320" lon="8.933281">
        <ele>5.452783</ele>
        <time>2026-03-20T14:39:56.523Z</time>
      </trkpt>
      <trkpt lat="53.010288" lon="8.932583">
        <ele>5.271773</ele>
        <time>2026-03-20T14:40:05.859Z</time>
      </trkpt>
      <trkpt lat="53.010304" lon="8.931908">
        <ele>5.357396</ele>
        <time>2026-03-20T14:40:15.286Z</time>
      </trkpt>
      <trkpt lat="53.010439" lon="8.930525">
        <ele>5.763040</ele>
        <time>2026-03-20T14:40:36.514Z</time>
      </trkpt>
      <trkpt lat="53.010565" lon="8.929845">
        <ele>5.969039</ele>
        <time>2026-03-20T14:40:47.971Z</time>
      </trkpt>
      <trkpt lat="53.010970" lon="8.928472">
        <ele>6.317014</ele>
        <time>2026-03-20T14:41:11.969Z</time>
      </trkpt>
      <trkpt lat="53.010986" lon="8.928331">
        <ele>6.346496</ele>
        <time>2026-03-20T14:41:14.120Z</time>
      </trkpt>
      <trkpt lat="53.011314" lon="8.928175">
        <ele>6.463007</ele>
        <time>2026-03-20T14:41:24.523Z</time>
      </trkpt>
      <trkpt lat="53.012506" lon="8.926630">
        <ele>6.552656</ele>
        <time>2026-03-20T14:41:57.528Z</time>
      </trkpt>
      <trkpt lat="53.013425" lon="8.924945">
        <ele>6.245008</ele>
        <time>2026-03-20T14:42:26.956Z</time>
      </trkpt>
      <trkpt lat="53.014037" lon="8.923245">
        <ele>5.840820</ele>
        <time>2026-03-20T14:42:51.876Z</time>
      </trkpt>
      <trkpt lat="53.014176" lon="8.923014">
        <ele>5.774165</ele>
        <time>2026-03-20T14:42:55.923Z</time>
      </trkpt>
      <trkpt lat="53.014430" lon="8.922746">
        <ele>5.674002</ele>
        <time>2026-03-20T14:43:02.138Z</time>
      </trkpt>
      <trkpt lat="53.015632" lon="8.922151">
        <ele>5.257063</ele>
        <time>2026-03-20T14:43:28.362Z</time>
      </trkpt>
      <trkpt lat="53.015834" lon="8.922006">
        <ele>5.183916</ele>
        <time>2026-03-20T14:43:33.077Z</time>
      </trkpt>
      <trkpt lat="53.016092" lon="8.921762">
        <ele>5.145209</ele>
        <time>2026-03-20T14:43:39.531Z</time>
      </trkpt>
      <trkpt lat="53.016360" lon="8.921405">
        <ele>5.112981</ele>
        <time>2026-03-20T14:43:47.042Z</time>
      </trkpt>
      <trkpt lat="53.016568" lon="8.921011">
        <ele>5.083388</ele>
        <time>2026-03-20T14:43:53.988Z</time>
      </trkpt>
      <trkpt lat="53.016742" lon="8.920534">
        <ele>5.051896</ele>
        <time>2026-03-20T14:44:01.388Z</time>
      </trkpt>
      <trkpt lat="53.016875" lon="8.919962">
        <ele>5.017277</ele>
        <time>2026-03-20T14:44:09.524Z</time>
      </trkpt>
      <trkpt lat="53.017012" lon="8.919125">
        <ele>5.015101</ele>
        <time>2026-03-20T14:44:21.011Z</time>
      </trkpt>
      <trkpt lat="53.017246" lon="8.917374">
        <ele>5.063300</ele>
        <time>2026-03-20T14:44:44.999Z</time>
      </trkpt>
      <trkpt lat="53.017399" lon="8.916437">
        <ele>5.111543</ele>
        <time>2026-03-20T14:44:58.388Z</time>
      </trkpt>
      <trkpt lat="53.017817" lon="8.913874">
        <ele>5.357707</ele>
        <time>2026-03-20T14:45:35.209Z</time>
      </trkpt>
      <trkpt lat="53.018270" lon="8.910350">
        <ele>5.446169</ele>
        <time>2026-03-20T14:46:23.550Z</time>
      </trkpt>
      <trkpt lat="53.018488" lon="8.909487">
        <ele>5.495364</ele>
        <time>2026-03-20T14:46:36.405Z</time>
      </trkpt>
      <trkpt lat="53.018946" lon="8.905507">
        <ele>5.653187</ele>
        <time>2026-03-20T14:47:31.265Z</time>
      </trkpt>
      <trkpt lat="53.019442" lon="8.900827">
        <ele>5.497548</ele>
        <time>2026-03-20T14:48:34.071Z</time>
      </trkpt>
      <trkpt lat="53.019572" lon="8.900176">
        <ele>5.467425</ele>
        <time>2026-03-20T14:48:43.185Z</time>
      </trkpt>
      <trkpt lat="53.019963" lon="8.898939">
        <ele>5.396783</ele>
        <time>2026-03-20T14:49:01.708Z</time>
      </trkpt>
      <trkpt lat="53.020288" lon="8.897970">
        <ele>5.326579</ele>
        <time>2026-03-20T14:49:16.299Z</time>
      </trkpt>
      <trkpt lat="53.020504" lon="8.897482">
        <ele>5.288240</ele>
        <time>2026-03-20T14:49:24.242Z</time>
      </trkpt>
      <trkpt lat="53.020878" lon="8.896889">
        <ele>5.237082</ele>
        <time>2026-03-20T14:49:35.502Z</time>
      </trkpt>
      <trkpt lat="53.023351" lon="8.893806">
        <ele>5.206324</ele>
        <time>2026-03-20T14:50:44.005Z</time>
      </trkpt>
      <trkpt lat="53.023653" lon="8.893372">
        <ele>5.208221</ele>
        <time>2026-03-20T14:50:52.805Z</time>
      </trkpt>
      <trkpt lat="53.025820" lon="8.889807">
        <ele>5.400996</ele>
        <time>2026-03-20T14:52:01.236Z</time>
      </trkpt>
      <trkpt lat="53.027430" lon="8.886494">
        <ele>6.046842</ele>
        <time>2026-03-20T14:53:00.850Z</time>
      </trkpt>
      <trkpt lat="53.027483" lon="8.886448">
        <ele>6.079247</ele>
        <time>2026-03-20T14:53:02.134Z</time>
      </trkpt>
      <trkpt lat="53.027537" lon="8.886489">
        <ele>6.111424</ele>
        <time>2026-03-20T14:53:03.413Z</time>
      </trkpt>
      <trkpt lat="53.028486" lon="8.888014">
        <ele>6.826773</ele>
        <time>2026-03-20T14:53:35.472Z</time>
      </trkpt>
      <trkpt lat="53.028540" lon="8.887939">
        <ele>6.864910</ele>
        <time>2026-03-20T14:53:37.367Z</time>
      </trkpt>
      <trkpt lat="53.028768" lon="8.887585">
        <ele>7.012117</ele>
        <time>2026-03-20T14:53:45.687Z</time>
      </trkpt>
      <trkpt lat="53.028864" lon="8.887454">
        <ele>7.063265</ele>
        <time>2026-03-20T14:53:49.030Z</time>
      </trkpt>
      <trkpt lat="53.028681" lon="8.887162">
        <ele>7.167725</ele>
        <time>2026-03-20T14:53:55.772Z</time>
      </trkpt>
      <trkpt lat="53.028196" lon="8.886498">
        <ele>7.426473</ele>
        <time>2026-03-20T14:54:11.913Z</time>
      </trkpt>
      <trkpt lat="53.028159" lon="8.886276">
        <ele>7.483535</ele>
        <time>2026-03-20T14:54:15.019Z</time>
      </trkpt>
      <trkpt lat="53.028027" lon="8.885620">
        <ele>7.654879</ele>
        <time>2026-03-20T14:54:23.627Z</time>
      </trkpt>
      <trkpt lat="53.028049" lon="8.885406">
        <ele>7.642549</ele>
        <time>2026-03-20T14:54:26.251Z</time>
      </trkpt>
      <trkpt lat="53.028145" lon="8.885129">
        <ele>7.512111</ele>
        <time>2026-03-20T14:54:30.075Z</time>
      </trkpt>
      <trkpt lat="53.029407" lon="8.882219">
        <ele>6.195464</ele>
        <time>2026-03-20T14:55:12.917Z</time>
      </trkpt>
      <trkpt lat="53.029987" lon="8.880982">
        <ele>5.782282</ele>
        <time>2026-03-20T14:55:32.729Z</time>
      </trkpt>
      <trkpt lat="53.030697" lon="8.879448">
        <ele>5.609667</ele>
        <time>2026-03-20T14:55:58.050Z</time>
      </trkpt>
      <trkpt lat="53.030985" lon="8.878826">
        <ele>5.575824</ele>
        <time>2026-03-20T14:56:08.420Z</time>
      </trkpt>
      <trkpt lat="53.032253" lon="8.876195">
        <ele>5.728923</ele>
        <time>2026-03-20T14:56:54.267Z</time>
      </trkpt>
      <trkpt lat="53.032599" lon="8.875561">
        <ele>5.796472</ele>
        <time>2026-03-20T14:57:06.145Z</time>
      </trkpt>
      <trkpt lat="53.032937" lon="8.874960">
        <ele>5.866277</ele>
        <time>2026-03-20T14:57:17.529Z</time>
      </trkpt>
      <trkpt lat="53.034303" lon="8.872802">
        <ele>6.120971</ele>
        <time>2026-03-20T14:58:00.227Z</time>
      </trkpt>
      <trkpt lat="53.034606" lon="8.872364">
        <ele>6.172755</ele>
        <time>2026-03-20T14:58:09.420Z</time>
      </trkpt>
      <trkpt lat="53.034886" lon="8.872042">
        <ele>6.216665</ele>
        <time>2026-03-20T14:58:17.217Z</time>
      </trkpt>
      <trkpt lat="53.035153" lon="8.871856">
        <ele>6.240781</ele>
        <time>2026-03-20T14:58:23.938Z</time>
      </trkpt>
      <trkpt lat="53.035291" lon="8.871928">
        <ele>6.246779</ele>
        <time>2026-03-20T14:58:27.332Z</time>
      </trkpt>
      <trkpt lat="53.035751" lon="8.872480">
        <ele>6.270302</ele>
        <time>2026-03-20T14:58:40.214Z</time>
      </trkpt>
      <trkpt lat="53.036182" lon="8.872992">
        <ele>6.292266</ele>
        <time>2026-03-20T14:58:51.772Z</time>
      </trkpt>
      <trkpt lat="53.036545" lon="8.873380">
        <ele>6.304715</ele>
        <time>2026-03-20T14:59:01.413Z</time>
      </trkpt>
      <trkpt lat="53.036762" lon="8.873559">
        <ele>6.263030</ele>
        <time>2026-03-20T14:59:06.825Z</time>
      </trkpt>
      <trkpt lat="53.036852" lon="8.873643">
        <ele>6.245269</ele>
        <time>2026-03-20T14:59:09.124Z</time>
      </trkpt>
      <trkpt lat="53.037134" lon="8.873821">
        <ele>6.193362</ele>
        <time>2026-03-20T14:59:15.762Z</time>
      </trkpt>
      <trkpt lat="53.038621" lon="8.874595">
        <ele>5.898511</ele>
        <time>2026-03-20T14:59:48.899Z</time>
      </trkpt>
      <trkpt lat="53.039582" lon="8.875575">
        <ele>5.634826</ele>
        <time>2026-03-20T15:00:12.163Z</time>
      </trkpt>
      <trkpt lat="53.040050" lon="8.875903">
        <ele>5.824836</ele>
        <time>2026-03-20T15:00:23.874Z</time>
      </trkpt>
      <trkpt lat="53.040480" lon="8.876085">
        <ele>6.231320</ele>
        <time>2026-03-20T15:00:34.965Z</time>
      </trkpt>
      <trkpt lat="53.040570" lon="8.876252">
        <ele>6.354849</ele>
        <time>2026-03-20T15:00:38.504Z</time>
      </trkpt>
      <trkpt lat="53.040597" lon="8.876481">
        <ele>6.483387</ele>
        <time>2026-03-20T15:00:42.355Z</time>
      </trkpt>
      <trkpt lat="53.040349" lon="8.876717">
        <ele>6.745143</ele>
        <time>2026-03-20T15:00:50.323Z</time>
      </trkpt>
      <trkpt lat="53.039718" lon="8.877320">
        <ele>7.344290</ele>
        <time>2026-03-20T15:01:10.770Z</time>
      </trkpt>
      <trkpt lat="53.039771" lon="8.877397">
        <ele>7.385251</ele>
        <time>2026-03-20T15:01:13.206Z</time>
      </trkpt>
      <trkpt lat="53.039391" lon="8.877766">
        <ele>7.641369</ele>
        <time>2026-03-20T15:01:27.645Z</time>
      </trkpt>
      <trkpt lat="53.039258" lon="8.878010">
        <ele>7.756627</ele>
        <time>2026-03-20T15:01:33.976Z</time>
      </trkpt>
      <trkpt lat="53.039209" lon="8.878210">
        <ele>7.832208</ele>
        <time>2026-03-20T15:01:38.070Z</time>
      </trkpt>
      <trkpt lat="53.039197" lon="8.878395">
        <ele>7.897328</ele>
        <time>2026-03-20T15:01:41.536Z</time>
      </trkpt>
      <trkpt lat="53.039209" lon="8.878569">
        <ele>7.958621</ele>
        <time>2026-03-20T15:01:44.756Z</time>
      </trkpt>
      <trkpt lat="53.039280" lon="8.878901">
        <ele>8.081941</ele>
        <time>2026-03-20T15:01:51.121Z</time>
      </trkpt>
      <trkpt lat="53.039600" lon="8.880341">
        <ele>8.110284</ele>
        <time>2026-03-20T15:02:17.296Z</time>
      </trkpt>
      <trkpt lat="53.039861" lon="8.881416">
        <ele>7.918734</ele>
        <time>2026-03-20T15:02:36.736Z</time>
      </trkpt>
      <trkpt lat="53.040650" lon="8.883697">
        <ele>7.768191</ele>
        <time>2026-03-20T15:03:21.667Z</time>
      </trkpt>
      <trkpt lat="53.040744" lon="8.883866">
        <ele>7.766768</ele>
        <time>2026-03-20T15:03:25.796Z</time>
      </trkpt>
      <trkpt lat="53.040789" lon="8.883914">
        <ele>7.766219</ele>
        <time>2026-03-20T15:03:27.390Z</time>
      </trkpt>
      <trkpt lat="53.040872" lon="8.883950">
        <ele>7.765337</ele>
        <time>2026-03-20T15:03:29.992Z</time>
      </trkpt>
      <trkpt lat="53.042021" lon="8.883899">
        <ele>7.882865</ele>
        <time>2026-03-20T15:04:05.215Z</time>
      </trkpt>
      <trkpt lat="53.045014" lon="8.883756">
        <ele>8.146042</ele>
        <time>2026-03-20T15:05:33.570Z</time>
      </trkpt>
      <trkpt lat="53.047890" lon="8.883616">
        <ele>7.845535</ele>
        <time>2026-03-20T15:06:56.515Z</time>
      </trkpt>
      <trkpt lat="53.048418" lon="8.883560">
        <ele>7.792424</ele>
        <time>2026-03-20T15:07:11.761Z</time>
      </trkpt>
      <trkpt lat="53.048426" lon="8.883676">
        <ele>7.785378</ele>
        <time>2026-03-20T15:07:13.331Z</time>
      </trkpt>
      <trkpt lat="53.050796" lon="8.883213">
        <ele>7.610710</ele>
        <time>2026-03-20T15:08:05.812Z</time>
      </trkpt>
      <trkpt lat="53.051305" lon="8.883116">
        <ele>7.575123</ele>
        <time>2026-03-20T15:08:17.242Z</time>
      </trkpt>
      <trkpt lat="53.051436" lon="8.883087">
        <ele>7.565943</ele>
        <time>2026-03-20T15:08:20.107Z</time>
      </trkpt>
      <trkpt lat="53.051838" lon="8.882977">
        <ele>7.537644</ele>
        <time>2026-03-20T15:08:28.790Z</time>
      </trkpt>
      <trkpt lat="53.052330" lon="8.882774">
        <ele>7.498249</ele>
        <time>2026-03-20T15:08:39.921Z</time>
      </trkpt>
      <trkpt lat="53.052649" lon="8.882589">
        <ele>7.470459</ele>
        <time>2026-03-20T15:08:47.301Z</time>
      </trkpt>
      <trkpt lat="53.053049" lon="8.882310">
        <ele>7.434780</ele>
        <time>2026-03-20T15:08:56.737Z</time>
      </trkpt>
      <trkpt lat="53.053192" lon="8.882788">
        <ele>7.408380</ele>
        <time>2026-03-20T15:09:03.722Z</time>
      </trkpt>
      <trkpt lat="53.053248" lon="8.882852">
        <ele>7.402792</ele>
        <time>2026-03-20T15:09:05.213Z</time>
      </trkpt>
      <trkpt lat="53.053359" lon="8.882841">
        <ele>7.393645</ele>
        <time>2026-03-20T15:09:07.663Z</time>
      </trkpt>
      <trkpt lat="53.054640" lon="8.882277">
        <ele>7.196453</ele>
        <time>2026-03-20T15:09:36.868Z</time>
      </trkpt>
      <trkpt lat="53.054883" lon="8.882061">
        <ele>7.152194</ele>
        <time>2026-03-20T15:09:42.694Z</time>
      </trkpt>
      <trkpt lat="53.055448" lon="8.881311">
        <ele>6.982954</ele>
        <time>2026-03-20T15:09:57.931Z</time>
      </trkpt>
      <trkpt lat="53.056184" lon="8.880309">
        <ele>6.674587</ele>
        <time>2026-03-20T15:10:18.026Z</time>
      </trkpt>
      <trkpt lat="53.056275" lon="8.880282">
        <ele>6.644614</ele>
        <time>2026-03-20T15:10:19.982Z</time>
      </trkpt>
      <trkpt lat="53.056360" lon="8.880325">
        <ele>6.615806</ele>
        <time>2026-03-20T15:10:21.882Z</time>
      </trkpt>
      <trkpt lat="53.056629" lon="8.880871">
        <ele>6.468227</ele>
        <time>2026-03-20T15:10:30.885Z</time>
      </trkpt>
      <trkpt lat="53.056710" lon="8.880944">
        <ele>6.427225</ele>
        <time>2026-03-20T15:10:32.829Z</time>
      </trkpt>
      <trkpt lat="53.056688" lon="8.880801">
        <ele>6.387737</ele>
        <time>2026-03-20T15:10:35.301Z</time>
      </trkpt>
      <trkpt lat="53.056743" lon="8.880686">
        <ele>6.348421</ele>
        <time>2026-03-20T15:10:37.768Z</time>
      </trkpt>
      <trkpt lat="53.057107" lon="8.880175">
        <ele>6.136439</ele>
        <time>2026-03-20T15:10:50.848Z</time>
      </trkpt>
      <trkpt lat="53.057231" lon="8.879935">
        <ele>6.051773</ele>
        <time>2026-03-20T15:10:56.010Z</time>
      </trkpt>
      <trkpt lat="53.057261" lon="8.879982">
        <ele>6.033432</ele>
        <time>2026-03-20T15:10:56.840Z</time>
      </trkpt>
      <trkpt lat="53.057310" lon="8.880048">
        <ele>6.005372</ele>
        <time>2026-03-20T15:10:58.107Z</time>
      </trkpt>
      <trkpt lat="53.057330" lon="8.879947">
        <ele>5.976924</ele>
        <time>2026-03-20T15:10:59.379Z</time>
      </trkpt>
      <trkpt lat="53.057416" lon="8.879955">
        <ele>5.938586</ele>
        <time>2026-03-20T15:11:01.095Z</time>
      </trkpt>
      <trkpt lat="53.057431" lon="8.879957">
        <ele>5.931888</ele>
        <time>2026-03-20T15:11:01.407Z</time>
      </trkpt>
      <trkpt lat="53.057685" lon="8.879830">
        <ele>5.813838</ele>
        <time>2026-03-20T15:11:06.687Z</time>
      </trkpt>
      <trkpt lat="53.058657" lon="8.879449">
        <ele>5.892820</ele>
        <time>2026-03-20T15:11:28.129Z</time>
      </trkpt>
      <trkpt lat="53.058775" lon="8.879281">
        <ele>5.931682</ele>
        <time>2026-03-20T15:11:31.784Z</time>
      </trkpt>
      <trkpt lat="53.058885" lon="8.879086">
        <ele>5.971902</ele>
        <time>2026-03-20T15:11:35.657Z</time>
      </trkpt>
      <trkpt lat="53.058954" lon="8.879099">
        <ele>5.989279</ele>
        <time>2026-03-20T15:11:37.344Z</time>
      </trkpt>
      <trkpt lat="53.059051" lon="8.878781">
        <ele>6.042909</ele>
        <time>2026-03-20T15:11:42.642Z</time>
      </trkpt>
      <trkpt lat="53.059059" lon="8.878456">
        <ele>6.091827</ele>
        <time>2026-03-20T15:11:47.590Z</time>
      </trkpt>
      <trkpt lat="53.059037" lon="8.878032">
        <ele>6.158244</ele>
        <time>2026-03-20T15:11:54.155Z</time>
      </trkpt>
      <trkpt lat="53.058925" lon="8.877223">
        <ele>6.513600</ele>
        <time>2026-03-20T15:12:07.122Z</time>
      </trkpt>
      <trkpt lat="53.058896" lon="8.876869">
        <ele>6.666529</ele>
        <time>2026-03-20T15:12:12.538Z</time>
      </trkpt>
      <trkpt lat="53.058900" lon="8.876469">
        <ele>6.837771</ele>
        <time>2026-03-20T15:12:18.392Z</time>
      </trkpt>
      <trkpt lat="53.058949" lon="8.875953">
        <ele>7.061381</ele>
        <time>2026-03-20T15:12:25.989Z</time>
      </trkpt>
      <trkpt lat="53.059039" lon="8.875573">
        <ele>7.236213</ele>
        <time>2026-03-20T15:12:31.966Z</time>
      </trkpt>
      <trkpt lat="53.059255" lon="8.874997">
        <ele>7.583228</ele>
        <time>2026-03-20T15:12:41.987Z</time>
      </trkpt>
      <trkpt lat="53.059340" lon="8.874928">
        <ele>7.692219</ele>
        <time>2026-03-20T15:12:44.355Z</time>
      </trkpt>
      <trkpt lat="53.060450" lon="8.876108">
        <ele>9.210183</ele>
        <time>2026-03-20T15:13:20.234Z</time>
      </trkpt>
      <trkpt lat="53.061003" lon="8.874549">
        <ele>9.941062</ele>
        <time>2026-03-20T15:13:50.721Z</time>
      </trkpt>
      <trkpt lat="53.060821" lon="8.874374">
        <ele>10.050752</ele>
        <time>2026-03-20T15:13:55.905Z</time>
      </trkpt>
      <trkpt lat="53.060780" lon="8.874314">
        <ele>10.079244</ele>
        <time>2026-03-20T15:13:57.288Z</time>
      </trkpt>
      <trkpt lat="53.060764" lon="8.874229">
        <ele>10.107178</ele>
        <time>2026-03-20T15:13:58.585Z</time>
      </trkpt>
      <trkpt lat="53.060783" lon="8.874044">
        <ele>10.166036</ele>
        <time>2026-03-20T15:14:01.291Z</time>
      </trkpt>
      <trkpt lat="53.060936" lon="8.873593">
        <ele>10.328451</ele>
        <time>2026-03-20T15:14:08.418Z</time>
      </trkpt>
      <trkpt lat="53.060981" lon="8.873460">
        <ele>10.376316</ele>
        <time>2026-03-20T15:14:10.379Z</time>
      </trkpt>
      <trkpt lat="53.061321" lon="8.872457">
        <ele>10.124366</ele>
        <time>2026-03-20T15:14:24.129Z</time>
      </trkpt>
      <trkpt lat="53.061374" lon="8.872347">
        <ele>10.075268</ele>
        <time>2026-03-20T15:14:25.718Z</time>
      </trkpt>
      <trkpt lat="53.061386" lon="8.872323">
        <ele>10.064396</ele>
        <time>2026-03-20T15:14:26.087Z</time>
      </trkpt>
      <trkpt lat="53.061620" lon="8.871697">
        <ele>9.807668</ele>
        <time>2026-03-20T15:14:35.291Z</time>
      </trkpt>
      <trkpt lat="53.061785" lon="8.871173">
        <ele>9.601660</ele>
        <time>2026-03-20T15:14:43.189Z</time>
      </trkpt>
      <trkpt lat="53.061867" lon="8.869993">
        <ele>9.448178</ele>
        <time>2026-03-20T15:14:59.501Z</time>
      </trkpt>
      <trkpt lat="53.061903" lon="8.869451">
        <ele>9.486292</ele>
        <time>2026-03-20T15:15:07.540Z</time>
      </trkpt>
      <trkpt lat="53.061923" lon="8.869059">
        <ele>9.513790</ele>
        <time>2026-03-20T15:15:13.421Z</time>
      </trkpt>
      <trkpt lat="53.061922" lon="8.868703">
        <ele>9.538674</ele>
        <time>2026-03-20T15:15:18.723Z</time>
      </trkpt>
      <trkpt lat="53.061941" lon="8.868454">
        <ele>9.556218</ele>
        <time>2026-03-20T15:15:22.381Z</time>
      </trkpt>
      <trkpt lat="53.061961" lon="8.868205">
        <ele>9.573777</ele>
        <time>2026-03-20T15:15:25.963Z</time>
      </trkpt>
      <trkpt lat="53.061971" lon="8.868058">
        <ele>9.584117</ele>
        <time>2026-03-20T15:15:28.031Z</time>
      </trkpt>
      <trkpt lat="53.062080" lon="8.868095">
        <ele>9.597056</ele>
        <time>2026-03-20T15:15:31.323Z</time>
      </trkpt>
      <trkpt lat="53.062214" lon="8.868132">
        <ele>9.612854</ele>
        <time>2026-03-20T15:15:35.236Z</time>
      </trkpt>
      <trkpt lat="53.062338" lon="8.868211">
        <ele>9.556835</ele>
        <time>2026-03-20T15:15:39.061Z</time>
      </trkpt>
      <trkpt lat="53.062401" lon="8.868159">
        <ele>9.524457</ele>
        <time>2026-03-20T15:15:40.636Z</time>
      </trkpt>
      <trkpt lat="53.062676" lon="8.868071">
        <ele>9.395526</ele>
        <time>2026-03-20T15:15:46.951Z</time>
      </trkpt>
      <trkpt lat="53.062975" lon="8.868252">
        <ele>9.249038</ele>
        <time>2026-03-20T15:15:53.845Z</time>
      </trkpt>
      <trkpt lat="53.063132" lon="8.868376">
        <ele>9.169026</ele>
        <time>2026-03-20T15:15:57.467Z</time>
      </trkpt>
      <trkpt lat="53.063176" lon="8.868423">
        <ele>9.144954</ele>
        <time>2026-03-20T15:15:58.545Z</time>
      </trkpt>
      <trkpt lat="53.063947" lon="8.869203">
        <ele>8.762347</ele>
        <time>2026-03-20T15:16:17.156Z</time>
      </trkpt>
      <trkpt lat="53.064108" lon="8.869403">
        <ele>8.723814</ele>
        <time>2026-03-20T15:16:21.771Z</time>
      </trkpt>
      <trkpt lat="53.064228" lon="8.869532">
        <ele>8.696415</ele>
        <time>2026-03-20T15:16:25.030Z</time>
      </trkpt>
      <trkpt lat="53.064289" lon="8.869596">
        <ele>8.682585</ele>
        <time>2026-03-20T15:16:26.688Z</time>
      </trkpt>
      <trkpt lat="53.064425" lon="8.869803">
        <ele>8.647236</ele>
        <time>2026-03-20T15:16:30.925Z</time>
      </trkpt>
      <trkpt lat="53.064438" lon="8.869821">
        <ele>8.643993</ele>
        <time>2026-03-20T15:16:31.309Z</time>
      </trkpt>
      <trkpt lat="53.064699" lon="8.870124">
        <ele>8.582959</ele>
        <time>2026-03-20T15:16:38.607Z</time>
      </trkpt>
      <trkpt lat="53.064879" lon="8.870275">
        <ele>8.544299</ele>
        <time>2026-03-20T15:16:43.199Z</time>
      </trkpt>
      <trkpt lat="53.065016" lon="8.870362">
        <ele>8.516175</ele>
        <time>2026-03-20T15:16:46.512Z</time>
      </trkpt>
      <trkpt lat="53.065623" lon="8.870828">
        <ele>8.343282</ele>
        <time>2026-03-20T15:17:02.188Z</time>
      </trkpt>
      <trkpt lat="53.066605" lon="8.871640">
        <ele>7.955151</ele>
        <time>2026-03-20T15:17:25.667Z</time>
      </trkpt>
      <trkpt lat="53.067205" lon="8.872222">
        <ele>7.639978</ele>
        <time>2026-03-20T15:17:41.050Z</time>
      </trkpt>
      <trkpt lat="53.067320" lon="8.872343">
        <ele>7.556600</ele>
        <time>2026-03-20T15:17:44.069Z</time>
      </trkpt>
      <trkpt lat="53.067233" lon="8.872540">
        <ele>7.466573</ele>
        <time>2026-03-20T15:17:47.306Z</time>
      </trkpt>
      <trkpt lat="53.067360" lon="8.872644">
        <ele>7.379833</ele>
        <time>2026-03-20T15:17:50.295Z</time>
      </trkpt>
      <trkpt lat="53.067121" lon="8.873233">
        <ele>7.118122</ele>
        <time>2026-03-20T15:17:59.498Z</time>
      </trkpt>
      <trkpt lat="53.067609" lon="8.873545">
        <ele>6.797756</ele>
        <time>2026-03-20T15:18:09.898Z</time>
      </trkpt>
      <trkpt lat="53.067823" lon="8.873682">
        <ele>6.637492</ele>
        <time>2026-03-20T15:18:14.307Z</time>
      </trkpt>
      <trkpt lat="53.068121" lon="8.873708">
        <ele>6.373770</ele>
        <time>2026-03-20T15:18:19.693Z</time>
      </trkpt>
      <trkpt lat="53.068388" lon="8.873540">
        <ele>6.121505</ele>
        <time>2026-03-20T15:18:24.906Z</time>
      </trkpt>
      <trkpt lat="53.068433" lon="8.873478">
        <ele>6.069876</ele>
        <time>2026-03-20T15:18:25.992Z</time>
      </trkpt>
      <trkpt lat="53.068677" lon="8.873844">
        <ele>5.779579</ele>
        <time>2026-03-20T15:18:34.535Z</time>
      </trkpt>
      <trkpt lat="53.068926" lon="8.874214">
        <ele>5.484576</ele>
        <time>2026-03-20T15:18:43.503Z</time>
      </trkpt>
      <trkpt lat="53.069693" lon="8.874991">
        <ele>5.177137</ele>
        <time>2026-03-20T15:19:08.716Z</time>
      </trkpt>
      <trkpt lat="53.069863" lon="8.875423">
        <ele>5.219303</ele>
        <time>2026-03-20T15:19:18.104Z</time>
      </trkpt>
      <trkpt lat="53.070013" lon="8.875846">
        <ele>5.259409</ele>
        <time>2026-03-20T15:19:27.330Z</time>
      </trkpt>
      <trkpt lat="53.070213" lon="8.876408">
        <ele>5.312743</ele>
        <time>2026-03-20T15:19:39.487Z</time>
      </trkpt>
      <trkpt lat="53.070258" lon="8.876492">
        <ele>5.321932</ele>
        <time>2026-03-20T15:19:41.540Z</time>
      </trkpt>
      <trkpt lat="53.070239" lon="8.876570">
        <ele>5.328805</ele>
        <time>2026-03-20T15:19:43.072Z</time>
      </trkpt>
      <trkpt lat="53.070202" lon="8.876610">
        <ele>5.334801</ele>
        <time>2026-03-20T15:19:44.108Z</time>
      </trkpt>
      <trkpt lat="53.070127" lon="8.876685">
        <ele>5.346691</ele>
        <time>2026-03-20T15:19:46.125Z</time>
      </trkpt>
      <trkpt lat="53.070217" lon="8.876878">
        <ele>5.368777</ele>
        <time>2026-03-20T15:19:49.660Z</time>
      </trkpt>
      <trkpt lat="53.070255" lon="8.876971">
        <ele>5.379952</ele>
        <time>2026-03-20T15:19:51.280Z</time>
      </trkpt>
      <trkpt lat="53.070438" lon="8.877377">
        <ele>5.430381</ele>
        <time>2026-03-20T15:19:58.639Z</time>
      </trkpt>
      <trkpt lat="53.070616" lon="8.877809">
        <ele>5.482428</ele>
        <time>2026-03-20T15:20:06.304Z</time>
      </trkpt>
      <trkpt lat="53.070790" lon="8.878221">
        <ele>5.532465</ele>
        <time>2026-03-20T15:20:13.742Z</time>
      </trkpt>
      <trkpt lat="53.070964" lon="8.878635">
        <ele>5.582664</ele>
        <time>2026-03-20T15:20:21.180Z</time>
      </trkpt>
      <trkpt lat="53.071160" lon="8.879104">
        <ele>5.639427</ele>
        <time>2026-03-20T15:20:29.097Z</time>
      </trkpt>
      <trkpt lat="53.071359" lon="8.879589">
        <ele>5.610525</ele>
        <time>2026-03-20T15:20:36.757Z</time>
      </trkpt>
      <trkpt lat="53.071481" lon="8.879904">
        <ele>5.573168</ele>
        <time>2026-03-20T15:20:43.070Z</time>
      </trkpt>
      <trkpt lat="53.071553" lon="8.880190">
        <ele>5.542260</ele>
        <time>2026-03-20T15:20:48.340Z</time>
      </trkpt>
      <trkpt lat="53.071610" lon="8.880541">
        <ele>5.506018</ele>
        <time>2026-03-20T15:20:54.561Z</time>
      </trkpt>
      <trkpt lat="53.071674" lon="8.880638">
        <ele>5.491658</ele>
        <time>2026-03-20T15:20:56.534Z</time>
      </trkpt>
      <trkpt lat="53.071717" lon="8.880724">
        <ele>5.480505</ele>
        <time>2026-03-20T15:20:58.060Z</time>
      </trkpt>
      <trkpt lat="53.071842" lon="8.880795">
        <ele>5.458594</ele>
        <time>2026-03-20T15:21:01.088Z</time>
      </trkpt>
      <trkpt lat="53.071885" lon="8.880780">
        <ele>5.451305</ele>
        <time>2026-03-20T15:21:02.091Z</time>
      </trkpt>
      <trkpt lat="53.071963" lon="8.880714">
        <ele>5.436788</ele>
        <time>2026-03-20T15:21:04.104Z</time>
      </trkpt>
      <trkpt lat="53.072065" lon="8.880828">
        <ele>5.416405</ele>
        <time>2026-03-20T15:21:07.658Z</time>
      </trkpt>
      <trkpt lat="53.072208" lon="8.880902">
        <ele>5.391561</ele>
        <time>2026-03-20T15:21:11.950Z</time>
      </trkpt>
      <trkpt lat="53.072795" lon="8.881328">
        <ele>5.286604</ele>
        <time>2026-03-20T15:21:30.410Z</time>
      </trkpt>
      <trkpt lat="53.073495" lon="8.881833">
        <ele>5.162333</ele>
        <time>2026-03-20T15:21:52.702Z</time>
      </trkpt>
      <trkpt lat="53.073587" lon="8.881826">
        <ele>5.147332</ele>
        <time>2026-03-20T15:21:54.756Z</time>
      </trkpt>
      <trkpt lat="53.074235" lon="8.882295">
        <ele>5.010804</ele>
        <time>2026-03-20T15:22:10.146Z</time>
      </trkpt>
      <trkpt lat="53.074416" lon="8.882456">
        <ele>4.953978</ele>
        <time>2026-03-20T15:22:14.613Z</time>
      </trkpt>
      <trkpt lat="53.074454" lon="8.882547">
        <ele>4.935542</ele>
        <time>2026-03-20T15:22:16.054Z</time>
      </trkpt>
      <trkpt lat="53.074447" lon="8.882654">
        <ele>4.917637</ele>
        <time>2026-03-20T15:22:17.453Z</time>
      </trkpt>
      <trkpt lat="53.074528" lon="8.882525">
        <ele>4.886595</ele>
        <time>2026-03-20T15:22:20.555Z</time>
      </trkpt>
      <trkpt lat="53.074604" lon="8.882465">
        <ele>4.863304</ele>
        <time>2026-03-20T15:22:22.918Z</time>
      </trkpt>
      <trkpt lat="53.074681" lon="8.882417">
        <ele>4.840537</ele>
        <time>2026-03-20T15:22:25.194Z</time>
      </trkpt>
      <trkpt lat="53.076615" lon="8.880638">
        <ele>4.685304</ele>
        <time>2026-03-20T15:23:28.519Z</time>
      </trkpt>
      <trkpt lat="53.076717" lon="8.880542">
        <ele>4.696936</ele>
        <time>2026-03-20T15:23:32.137Z</time>
      </trkpt>
      <trkpt lat="53.076834" lon="8.880433">
        <ele>4.710245</ele>
        <time>2026-03-20T15:23:36.304Z</time>
      </trkpt>
      <trkpt lat="53.076858" lon="8.880512">
        <ele>4.715525</ele>
        <time>2026-03-20T15:23:37.551Z</time>
      </trkpt>
      <trkpt lat="53.076925" lon="8.880733">
        <ele>4.730287</ele>
        <time>2026-03-20T15:23:41.217Z</time>
      </trkpt>
      <trkpt lat="53.076953" lon="8.880823">
        <ele>4.736331</ele>
        <time>2026-03-20T15:23:42.745Z</time>
      </trkpt>
      <trkpt lat="53.077050" lon="8.880711">
        <ele>4.765470</ele>
        <time>2026-03-20T15:23:46.581Z</time>
      </trkpt>
      <trkpt lat="53.077350" lon="8.880429">
        <ele>4.926501</ele>
        <time>2026-03-20T15:23:57.812Z</time>
      </trkpt>
      <trkpt lat="53.078042" lon="8.879844">
        <ele>5.289260</ele>
        <time>2026-03-20T15:24:22.066Z</time>
      </trkpt>
      <trkpt lat="53.078107" lon="8.879791">
        <ele>5.323089</ele>
        <time>2026-03-20T15:24:24.264Z</time>
      </trkpt>
      <trkpt lat="53.078611" lon="8.879370">
        <ele>5.582687</ele>
        <time>2026-03-20T15:24:41.618Z</time>
      </trkpt>
      <trkpt lat="53.078804" lon="8.879325">
        <ele>5.535740</ele>
        <time>2026-03-20T15:24:47.501Z</time>
      </trkpt>
      <trkpt lat="53.078932" lon="8.879142">
        <ele>5.495094</ele>
        <time>2026-03-20T15:24:52.480Z</time>
      </trkpt>
      <trkpt lat="53.079117" lon="8.879019">
        <ele>5.447104</ele>
        <time>2026-03-20T15:24:58.298Z</time>
      </trkpt>
      <trkpt lat="53.079223" lon="8.878951">
        <ele>5.419739</ele>
        <time>2026-03-20T15:25:01.559Z</time>
      </trkpt>
      <trkpt lat="53.079238" lon="8.878909">
        <ele>5.412668</ele>
        <time>2026-03-20T15:25:02.429Z</time>
      </trkpt>
      <trkpt lat="53.079267" lon="8.878830">
        <ele>5.399270</ele>
        <time>2026-03-20T15:25:03.970Z</time>
      </trkpt>
      <trkpt lat="53.079968" lon="8.878028">
        <ele>5.194365</ele>
        <time>2026-03-20T15:25:27.789Z</time>
      </trkpt>
      <trkpt lat="53.080561" lon="8.877474">
        <ele>4.839070</ele>
        <time>2026-03-20T15:25:45.761Z</time>
      </trkpt>
      <trkpt lat="53.080691" lon="8.877351">
        <ele>4.745661</ele>
        <time>2026-03-20T15:25:49.678Z</time>
      </trkpt>
      <trkpt lat="53.080966" lon="8.877094">
        <ele>4.548653</ele>
        <time>2026-03-20T15:25:57.958Z</time>
      </trkpt>
      <trkpt lat="53.081437" lon="8.876646">
        <ele>4.209785</ele>
        <time>2026-03-20T15:26:12.728Z</time>
      </trkpt>
      <trkpt lat="53.081812" lon="8.876318">
        <ele>4.065897</ele>
        <time>2026-03-20T15:26:24.687Z</time>
      </trkpt>
      <trkpt lat="53.081918" lon="8.876250">
        <ele>4.099436</ele>
        <time>2026-03-20T15:26:27.978Z</time>
      </trkpt>
      <trkpt lat="53.082019" lon="8.876246">
        <ele>4.129264</ele>
        <time>2026-03-20T15:26:30.970Z</time>
      </trkpt>
      <trkpt lat="53.082094" lon="8.876309">
        <ele>4.154066</ele>
        <time>2026-03-20T15:26:32.843Z</time>
      </trkpt>
      <trkpt lat="53.082153" lon="8.876270">
        <ele>4.172809</ele>
        <time>2026-03-20T15:26:34.350Z</time>
      </trkpt>
      <trkpt lat="53.082478" lon="8.875955">
        <ele>4.283840</ele>
        <time>2026-03-20T15:26:43.466Z</time>
      </trkpt>
      <trkpt lat="53.082552" lon="8.875889">
        <ele>4.308626</ele>
        <time>2026-03-20T15:26:45.624Z</time>
      </trkpt>
      <trkpt lat="53.082577" lon="8.875809">
        <ele>4.324619</ele>
        <time>2026-03-20T15:26:46.976Z</time>
      </trkpt>
      <trkpt lat="53.082626" lon="8.875688">
        <ele>4.350498</ele>
        <time>2026-03-20T15:26:49.800Z</time>
      </trkpt>
      <trkpt lat="53.082715" lon="8.875562">
        <ele>4.384992</ele>
        <time>2026-03-20T15:26:53.473Z</time>
      </trkpt>
      <trkpt lat="53.082849" lon="8.875441">
        <ele>4.429999</ele>
        <time>2026-03-20T15:26:58.316Z</time>
      </trkpt>
      <trkpt lat="53.083053" lon="8.875237">
        <ele>4.500259</ele>
        <time>2026-03-20T15:27:05.740Z</time>
      </trkpt>
      <trkpt lat="53.083270" lon="8.874982">
        <ele>4.558552</ele>
        <time>2026-03-20T15:27:13.871Z</time>
      </trkpt>
      <trkpt lat="53.083738" lon="8.874521">
        <ele>4.561404</ele>
        <time>2026-03-20T15:27:30.508Z</time>
      </trkpt>
      <trkpt lat="53.084059" lon="8.874211">
        <ele>4.563350</ele>
        <time>2026-03-20T15:27:41.700Z</time>
      </trkpt>
      <trkpt lat="53.084289" lon="8.873993">
        <ele>4.564737</ele>
        <time>2026-03-20T15:27:49.131Z</time>
      </trkpt>
      <trkpt lat="53.084375" lon="8.873907">
        <ele>4.565264</ele>
        <time>2026-03-20T15:27:51.880Z</time>
      </trkpt>
      <trkpt lat="53.084489" lon="8.873792">
        <ele>4.565963</ele>
        <time>2026-03-20T15:27:55.508Z</time>
      </trkpt>
      <trkpt lat="53.084666" lon="8.873631">
        <ele>4.567020</ele>
        <time>2026-03-20T15:28:00.963Z</time>
      </trkpt>
      <trkpt lat="53.084747" lon="8.873556">
        <ele>4.567506</ele>
        <time>2026-03-20T15:28:03.545Z</time>
      </trkpt>
      <trkpt lat="53.085114" lon="8.873264">
        <ele>4.568094</ele>
        <time>2026-03-20T15:28:14.992Z</time>
      </trkpt>
      <trkpt lat="53.085502" lon="8.873008">
        <ele>4.568608</ele>
        <time>2026-03-20T15:28:26.939Z</time>
      </trkpt>
      <trkpt lat="53.085566" lon="8.872962">
        <ele>4.568694</ele>
        <time>2026-03-20T15:28:28.540Z</time>
      </trkpt>
      <trkpt lat="53.085638" lon="8.872887">
        <ele>4.568799</ele>
        <time>2026-03-20T15:28:30.458Z</time>
      </trkpt>
      <trkpt lat="53.085582" lon="8.872644">
        <ele>4.568991</ele>
        <time>2026-03-20T15:28:34.040Z</time>
      </trkpt>
      <trkpt lat="53.085527" lon="8.872409">
        <ele>4.569178</ele>
        <time>2026-03-20T15:28:37.595Z</time>
      </trkpt>
      <trkpt lat="53.085566" lon="8.872378">
        <ele>4.569231</ele>
        <time>2026-03-20T15:28:38.652Z</time>
      </trkpt>
      <trkpt lat="53.085838" lon="8.872177">
        <ele>4.569598</ele>
        <time>2026-03-20T15:28:46.021Z</time>
      </trkpt>
      <trkpt lat="53.085901" lon="8.872132">
        <ele>4.569682</ele>
        <time>2026-03-20T15:28:47.747Z</time>
      </trkpt>
      <trkpt lat="53.086227" lon="8.871897">
        <ele>4.590148</ele>
        <time>2026-03-20T15:28:56.846Z</time>
      </trkpt>
      <trkpt lat="53.086321" lon="8.871830">
        <ele>4.599147</ele>
        <time>2026-03-20T15:28:59.462Z</time>
      </trkpt>
      <trkpt lat="53.086504" lon="8.871697">
        <ele>4.616720</ele>
        <time>2026-03-20T15:29:04.435Z</time>
      </trkpt>
      <trkpt lat="53.086711" lon="8.871560">
        <ele>4.636325</ele>
        <time>2026-03-20T15:29:09.742Z</time>
      </trkpt>
      <trkpt lat="53.087549" lon="8.870744">
        <ele>4.721763</ele>
        <time>2026-03-20T15:29:31.905Z</time>
      </trkpt>
      <trkpt lat="53.087584" lon="8.870860">
        <ele>4.727496</ele>
        <time>2026-03-20T15:29:33.554Z</time>
      </trkpt>
      <trkpt lat="53.087786" lon="8.870726">
        <ele>4.702806</ele>
        <time>2026-03-20T15:29:38.282Z</time>
      </trkpt>
      <trkpt lat="53.087989" lon="8.870648">
        <ele>4.679150</ele>
        <time>2026-03-20T15:29:42.870Z</time>
      </trkpt>
      <trkpt lat="53.088347" lon="8.870579">
        <ele>4.638228</ele>
        <time>2026-03-20T15:29:50.873Z</time>
      </trkpt>
      <trkpt lat="53.088646" lon="8.870560">
        <ele>4.604253</ele>
        <time>2026-03-20T15:29:57.591Z</time>
      </trkpt>
      <trkpt lat="53.089734" lon="8.870628">
        <ele>4.632698</ele>
        <time>2026-03-20T15:30:22.958Z</time>
      </trkpt>
      <trkpt lat="53.090670" lon="8.870704">
        <ele>4.900227</ele>
        <time>2026-03-20T15:30:45.935Z</time>
      </trkpt>
      <trkpt lat="53.090812" lon="8.870714">
        <ele>4.940802</ele>
        <time>2026-03-20T15:30:49.528Z</time>
      </trkpt>
      <trkpt lat="53.091275" lon="8.870748">
        <ele>5.056962</ele>
        <time>2026-03-20T15:31:01.178Z</time>
      </trkpt>
      <trkpt lat="53.091286" lon="8.870929">
        <ele>5.074056</ele>
        <time>2026-03-20T15:31:03.899Z</time>
      </trkpt>
      <trkpt lat="53.091327" lon="8.871447">
        <ele>5.123151</ele>
        <time>2026-03-20T15:31:11.565Z</time>
      </trkpt>
      <trkpt lat="53.091351" lon="8.871581">
        <ele>5.136290</ele>
        <time>2026-03-20T15:31:13.594Z</time>
      </trkpt>
      <trkpt lat="53.091421" lon="8.871754">
        <ele>5.155892</ele>
        <time>2026-03-20T15:31:16.618Z</time>
      </trkpt>
      <trkpt lat="53.091521" lon="8.871850">
        <ele>5.173952</ele>
        <time>2026-03-20T15:31:19.379Z</time>
      </trkpt>
      <trkpt lat="53.091661" lon="8.871904">
        <ele>5.196437</ele>
        <time>2026-03-20T15:31:22.826Z</time>
      </trkpt>
      <trkpt lat="53.091789" lon="8.871870">
        <ele>5.216718</ele>
        <time>2026-03-20T15:31:25.946Z</time>
      </trkpt>
      <trkpt lat="53.091972" lon="8.871729">
        <ele>5.248268</ele>
        <time>2026-03-20T15:31:30.772Z</time>
      </trkpt>
      <trkpt lat="53.092755" lon="8.871037">
        <ele>5.157358</ele>
        <time>2026-03-20T15:31:50.653Z</time>
      </trkpt>
      <trkpt lat="53.092881" lon="8.870925">
        <ele>5.104423</ele>
        <time>2026-03-20T15:31:53.825Z</time>
      </trkpt>
      <trkpt lat="53.093300" lon="8.870633">
        <ele>4.936082</ele>
        <time>2026-03-20T15:32:03.856Z</time>
      </trkpt>
      <trkpt lat="53.093503" lon="8.870573">
        <ele>4.859671</ele>
        <time>2026-03-20T15:32:08.319Z</time>
      </trkpt>
      <trkpt lat="53.093830" lon="8.870564">
        <ele>4.738461</ele>
        <time>2026-03-20T15:32:15.236Z</time>
      </trkpt>
      <trkpt lat="53.093884" lon="8.870564">
        <ele>4.718448</ele>
        <time>2026-03-20T15:32:16.360Z</time>
      </trkpt>
      <trkpt lat="53.094506" lon="8.870592">
        <ele>4.463273</ele>
        <time>2026-03-20T15:32:29.403Z</time>
      </trkpt>
      <trkpt lat="53.094650" lon="8.870599">
        <ele>4.401901</ele>
        <time>2026-03-20T15:32:32.581Z</time>
      </trkpt>
      <trkpt lat="53.095217" lon="8.870620">
        <ele>4.160291</ele>
        <time>2026-03-20T15:32:45.280Z</time>
      </trkpt>
      <trkpt lat="53.095904" lon="8.870629">
        <ele>3.891265</ele>
        <time>2026-03-20T15:32:59.947Z</time>
      </trkpt>
      <trkpt lat="53.096303" lon="8.870578">
        <ele>3.940717</ele>
        <time>2026-03-20T15:33:08.564Z</time>
      </trkpt>
      <trkpt lat="53.096452" lon="8.870517">
        <ele>3.959678</ele>
        <time>2026-03-20T15:33:12.209Z</time>
      </trkpt>
      <trkpt lat="53.096498" lon="8.870499">
        <ele>3.965517</ele>
        <time>2026-03-20T15:33:13.338Z</time>
      </trkpt>
      <trkpt lat="53.096984" lon="8.870208">
        <ele>4.029339</ele>
        <time>2026-03-20T15:33:26.221Z</time>
      </trkpt>
      <trkpt lat="53.097102" lon="8.870120">
        <ele>4.045316</ele>
        <time>2026-03-20T15:33:29.337Z</time>
      </trkpt>
      <trkpt lat="53.097196" lon="8.870059">
        <ele>4.057783</ele>
        <time>2026-03-20T15:33:31.757Z</time>
      </trkpt>
      <trkpt lat="53.097342" lon="8.870047">
        <ele>4.075847</ele>
        <time>2026-03-20T15:33:35.250Z</time>
      </trkpt>
      <trkpt lat="53.097556" lon="8.870128">
        <ele>4.102967</ele>
        <time>2026-03-20T15:33:40.550Z</time>
      </trkpt>
      <trkpt lat="53.097774" lon="8.870324">
        <ele>4.162043</ele>
        <time>2026-03-20T15:33:46.750Z</time>
      </trkpt>
      <trkpt lat="53.098142" lon="8.870693">
        <ele>4.274686</ele>
        <time>2026-03-20T15:33:57.913Z</time>
      </trkpt>
      <trkpt lat="53.098200" lon="8.870758">
        <ele>4.293019</ele>
        <time>2026-03-20T15:33:59.789Z</time>
      </trkpt>
      <trkpt lat="53.098268" lon="8.870826">
        <ele>4.313818</ele>
        <time>2026-03-20T15:34:01.899Z</time>
      </trkpt>
      <trkpt lat="53.098347" lon="8.870904">
        <ele>4.337902</ele>
        <time>2026-03-20T15:34:04.336Z</time>
      </trkpt>
      <trkpt lat="53.098445" lon="8.871001">
        <ele>4.367797</ele>
        <time>2026-03-20T15:34:07.261Z</time>
      </trkpt>
      <trkpt lat="53.098548" lon="8.871099">
        <ele>4.398904</ele>
        <time>2026-03-20T15:34:10.127Z</time>
      </trkpt>
      <trkpt lat="53.099047" lon="8.871564">
        <ele>4.548849</ele>
        <time>2026-03-20T15:34:22.878Z</time>
      </trkpt>
      <trkpt lat="53.099435" lon="8.871938">
        <ele>4.516821</ele>
        <time>2026-03-20T15:34:32.873Z</time>
      </trkpt>
      <trkpt lat="53.099530" lon="8.872032">
        <ele>4.495703</ele>
        <time>2026-03-20T15:34:35.365Z</time>
      </trkpt>
      <trkpt lat="53.099818" lon="8.872305">
        <ele>4.432374</ele>
        <time>2026-03-20T15:34:42.946Z</time>
      </trkpt>
      <trkpt lat="53.100846" lon="8.873276">
        <ele>4.231346</ele>
        <time>2026-03-20T15:35:09.164Z</time>
      </trkpt>
      <trkpt lat="53.101116" lon="8.873585">
        <ele>4.221207</ele>
        <time>2026-03-20T15:35:16.858Z</time>
      </trkpt>
      <trkpt lat="53.101232" lon="8.873796">
        <ele>4.215891</ele>
        <time>2026-03-20T15:35:20.841Z</time>
      </trkpt>
      <trkpt lat="53.101282" lon="8.874004">
        <ele>4.211727</ele>
        <time>2026-03-20T15:35:23.934Z</time>
      </trkpt>
      <trkpt lat="53.101303" lon="8.874785">
        <ele>4.197200</ele>
        <time>2026-03-20T15:35:34.511Z</time>
      </trkpt>
      <trkpt lat="53.101312" lon="8.875156">
        <ele>4.190300</ele>
        <time>2026-03-20T15:35:39.604Z</time>
      </trkpt>
      <trkpt lat="53.101332" lon="8.876001">
        <ele>4.221285</ele>
        <time>2026-03-20T15:35:52.053Z</time>
      </trkpt>
      <trkpt lat="53.101332" lon="8.876406">
        <ele>4.273428</ele>
        <time>2026-03-20T15:35:57.970Z</time>
      </trkpt>
      <trkpt lat="53.101333" lon="8.877158">
        <ele>4.370246</ele>
        <time>2026-03-20T15:36:07.999Z</time>
      </trkpt>
      <trkpt lat="53.101335" lon="8.877637">
        <ele>4.431918</ele>
        <time>2026-03-20T15:36:14.514Z</time>
      </trkpt>
      <trkpt lat="53.101335" lon="8.877823">
        <ele>4.455865</ele>
        <time>2026-03-20T15:36:17.223Z</time>
      </trkpt>
      <trkpt lat="53.101338" lon="8.878684">
        <ele>4.567837</ele>
        <time>2026-03-20T15:36:30.449Z</time>
      </trkpt>
      <trkpt lat="53.101338" lon="8.878814">
        <ele>4.618667</ele>
        <time>2026-03-20T15:36:32.529Z</time>
      </trkpt>
      <trkpt lat="53.101344" lon="8.879358">
        <ele>4.831410</ele>
        <time>2026-03-20T15:36:41.231Z</time>
      </trkpt>
      <trkpt lat="53.101319" lon="8.879549">
        <ele>4.907846</ele>
        <time>2026-03-20T15:36:45.003Z</time>
      </trkpt>
      <trkpt lat="53.101303" lon="8.879853">
        <ele>5.027168</ele>
        <time>2026-03-20T15:36:50.817Z</time>
      </trkpt>
      <trkpt lat="53.101300" lon="8.879948">
        <ele>5.064364</ele>
        <time>2026-03-20T15:36:52.653Z</time>
      </trkpt>
      <trkpt lat="53.101279" lon="8.880568">
        <ele>5.307173</ele>
        <time>2026-03-20T15:37:04.903Z</time>
      </trkpt>
      <trkpt lat="53.101278" lon="8.880595">
        <ele>5.317751</ele>
        <time>2026-03-20T15:37:05.435Z</time>
      </trkpt>
      <trkpt lat="53.101269" lon="8.880771">
        <ele>5.386817</ele>
        <time>2026-03-20T15:37:08.971Z</time>
      </trkpt>
      <trkpt lat="53.101236" lon="8.880964">
        <ele>5.465281</ele>
        <time>2026-03-20T15:37:12.877Z</time>
      </trkpt>
      <trkpt lat="53.101228" lon="8.881013">
        <ele>5.485137</ele>
        <time>2026-03-20T15:37:13.873Z</time>
      </trkpt>
      <trkpt lat="53.101076" lon="8.881709">
        <ele>5.731810</ele>
        <time>2026-03-20T15:37:27.634Z</time>
      </trkpt>
      <trkpt lat="53.101067" lon="8.881965">
        <ele>5.716423</ele>
        <time>2026-03-20T15:37:32.308Z</time>
      </trkpt>
      <trkpt lat="53.100916" lon="8.882369">
        <ele>5.687869</ele>
        <time>2026-03-20T15:37:39.063Z</time>
      </trkpt>
      <trkpt lat="53.100893" lon="8.882430">
        <ele>5.683547</ele>
        <time>2026-03-20T15:37:40.072Z</time>
      </trkpt>
      <trkpt lat="53.100847" lon="8.882554">
        <ele>5.674802</ele>
        <time>2026-03-20T15:37:42.112Z</time>
      </trkpt>
      <trkpt lat="53.100684" lon="8.882987">
        <ele>5.644137</ele>
        <time>2026-03-20T15:37:48.962Z</time>
      </trkpt>
      <trkpt lat="53.100646" lon="8.883089">
        <ele>5.636934</ele>
        <time>2026-03-20T15:37:50.540Z</time>
      </trkpt>
      <trkpt lat="53.100607" lon="8.883193">
        <ele>5.629577</ele>
        <time>2026-03-20T15:37:52.130Z</time>
      </trkpt>
      <trkpt lat="53.100527" lon="8.883407">
        <ele>5.614451</ele>
        <time>2026-03-20T15:37:55.364Z</time>
      </trkpt>
      <trkpt lat="53.100233" lon="8.884272">
        <ele>5.557773</ele>
        <time>2026-03-20T15:38:08.224Z</time>
      </trkpt>
      <trkpt lat="53.100187" lon="8.884418">
        <ele>5.557773</ele>
        <time>2026-03-20T15:38:10.526Z</time>
      </trkpt>
      <trkpt lat="53.100135" lon="8.884581">
        <ele>5.557773</ele>
        <time>2026-03-20T15:38:13.099Z</time>
      </trkpt>
      <trkpt lat="53.099930" lon="8.885243">
        <ele>5.557773</ele>
        <time>2026-03-20T15:38:23.546Z</time>
      </trkpt>
      <trkpt lat="53.099820" lon="8.885586">
        <ele>5.557773</ele>
        <time>2026-03-20T15:38:28.757Z</time>
      </trkpt>
      <trkpt lat="53.099723" lon="8.885887">
        <ele>5.557773</ele>
        <time>2026-03-20T15:38:33.307Z</time>
      </trkpt>
      <trkpt lat="53.099683" lon="8.886010">
        <ele>5.557773</ele>
        <time>2026-03-20T15:38:35.224Z</time>
      </trkpt>
      <trkpt lat="53.099493" lon="8.886593">
        <ele>5.557773</ele>
        <time>2026-03-20T15:38:44.209Z</time>
      </trkpt>
      <trkpt lat="53.099467" lon="8.886673">
        <ele>5.557773</ele>
        <time>2026-03-20T15:38:45.483Z</time>
      </trkpt>
      <trkpt lat="53.099356" lon="8.887015">
        <ele>5.557773</ele>
        <time>2026-03-20T15:38:50.873Z</time>
      </trkpt>
      <trkpt lat="53.099426" lon="8.887200">
        <ele>5.557773</ele>
        <time>2026-03-20T15:38:53.816Z</time>
      </trkpt>
    </trkseg>
  </trk>
</gpx>